<?xml version="1.0" encoding="UTF-8" standalone="no" ?><gpx xmlns="http://www.topografix.com/GPX/1/1" xmlns:gpxx="http://www.garmin.com/xmlschemas/GpxExtensions/v3" xmlns:wptx1="http://www.garmin.com/xmlschemas/WaypointExtension/v1" xmlns:gpxtpx="http://www.garmin.com/xmlschemas/TrackPointExtension/v1" creator="Dakota 20" version="1.1" xmlns:xsi="http://www.w3.org/2001/XMLSchema-instance" xsi:schemaLocation="http://www.topografix.com/GPX/1/1 http://www.topografix.com/GPX/1/1/gpx.xsd http://www.garmin.com/xmlschemas/GpxExtensions/v3 http://www8.garmin.com/xmlschemas/GpxExtensionsv3.xsd http://www.garmin.com/xmlschemas/WaypointExtension/v1 http://www8.garmin.com/xmlschemas/WaypointExtensionv1.xsd http://www.garmin.com/xmlschemas/TrackPointExtension/v1 http://www.garmin.com/xmlschemas/TrackPointExtensionv1.xsd"><metadata><link href="http://www.garmin.com"><text>Garmin International</text></link><time>2012-10-21T15:37:56Z</time></metadata><trk><name>Zornheim</name><extensions><gpxx:TrackExtension><gpxx:DisplayColor>Black</gpxx:DisplayColor></gpxx:TrackExtension></extensions><trkseg><trkpt lat="49.9048201740" lon="8.2812858839"><ele>143.85</ele><time>2012-10-21T09:43:54Z</time></trkpt><trkpt lat="49.9048174918" lon="8.2812860515"><ele>143.85</ele><time>2012-10-21T09:43:55Z</time></trkpt><trkpt lat="49.9048240297" lon="8.2812493388"><ele>144.82</ele><time>2012-10-21T09:44:18Z</time></trkpt><trkpt lat="49.9048249517" lon="8.2812417950"><ele>144.82</ele><time>2012-10-21T09:44:35Z</time></trkpt><trkpt lat="49.9048221018" lon="8.2812422980"><ele>144.82</ele><time>2012-10-21T09:45:03Z</time></trkpt><trkpt lat="49.9048182461" lon="8.2812444773"><ele>145.30</ele><time>2012-10-21T09:45:30Z</time></trkpt><trkpt lat="49.9048288073" lon="8.2812801842"><ele>145.30</ele><time>2012-10-21T09:45:45Z</time></trkpt><trkpt lat="49.9048575573" lon="8.2814080082"><ele>145.78</ele><time>2012-10-21T09:45:52Z</time></trkpt><trkpt lat="49.9047826231" lon="8.2816117723"><ele>146.74</ele><time>2012-10-21T09:46:01Z</time></trkpt><trkpt lat="49.9047143105" lon="8.2817095891"><ele>147.22</ele><time>2012-10-21T09:46:07Z</time></trkpt><trkpt lat="49.9046110455" lon="8.2818742935"><ele>147.70</ele><time>2012-10-21T09:46:17Z</time></trkpt><trkpt lat="49.9045357760" lon="8.2819193043"><ele>148.18</ele><time>2012-10-21T09:46:31Z</time></trkpt><trkpt lat="49.9044690561" lon="8.2818921469"><ele>148.66</ele><time>2012-10-21T09:46:54Z</time></trkpt><trkpt lat="49.9044299964" lon="8.2818137761"><ele>148.66</ele><time>2012-10-21T09:47:01Z</time></trkpt><trkpt lat="49.9044037610" lon="8.2816939987"><ele>148.18</ele><time>2012-10-21T09:47:16Z</time></trkpt><trkpt lat="49.9044273980" lon="8.2816155441"><ele>147.70</ele><time>2012-10-21T09:47:35Z</time></trkpt><trkpt lat="49.9044801202" lon="8.2813265361"><ele>147.22</ele><time>2012-10-21T09:47:53Z</time></trkpt><trkpt lat="49.9045591615" lon="8.2809919305"><ele>146.26</ele><time>2012-10-21T09:48:10Z</time></trkpt><trkpt lat="49.9045757577" lon="8.2809593249"><ele>145.78</ele><time>2012-10-21T09:48:13Z</time></trkpt><trkpt lat="49.9046081956" lon="8.2807979733"><ele>145.30</ele><time>2012-10-21T09:48:20Z</time></trkpt><trkpt lat="49.9046454951" lon="8.2806279883"><ele>145.30</ele><time>2012-10-21T09:48:27Z</time></trkpt><trkpt lat="49.9046905898" lon="8.2804207038"><ele>144.34</ele><time>2012-10-21T09:48:37Z</time></trkpt><trkpt lat="49.9047190044" lon="8.2802299317"><ele>143.85</ele><time>2012-10-21T09:48:48Z</time></trkpt><trkpt lat="49.9047333375" lon="8.2801763713"><ele>143.85</ele><time>2012-10-21T09:48:51Z</time></trkpt><trkpt lat="49.9047418032" lon="8.2800637186"><ele>143.37</ele><time>2012-10-21T09:48:56Z</time></trkpt><trkpt lat="49.9047854729" lon="8.2796674222"><ele>142.89</ele><time>2012-10-21T09:49:12Z</time></trkpt><trkpt lat="49.9048282206" lon="8.2793428749"><ele>141.93</ele><time>2012-10-21T09:49:26Z</time></trkpt><trkpt lat="49.9048443977" lon="8.2791980356"><ele>141.93</ele><time>2012-10-21T09:49:32Z</time></trkpt><trkpt lat="49.9048651010" lon="8.2789540384"><ele>141.45</ele><time>2012-10-21T09:49:43Z</time></trkpt><trkpt lat="49.9049131293" lon="8.2786714006"><ele>141.45</ele><time>2012-10-21T09:49:59Z</time></trkpt><trkpt lat="49.9048573058" lon="8.2783061173"><ele>141.45</ele><time>2012-10-21T09:50:15Z</time></trkpt><trkpt lat="49.9047037493" lon="8.2781736832"><ele>140.97</ele><time>2012-10-21T09:50:30Z</time></trkpt><trkpt lat="49.9045867380" lon="8.2780959830"><ele>140.97</ele><time>2012-10-21T09:50:39Z</time></trkpt><trkpt lat="49.9046328384" lon="8.2777453680"><ele>140.49</ele><time>2012-10-21T09:50:56Z</time></trkpt><trkpt lat="49.9046442378" lon="8.2775674202"><ele>140.49</ele><time>2012-10-21T09:51:10Z</time></trkpt><trkpt lat="49.9046427291" lon="8.2775107585"><ele>140.49</ele><time>2012-10-21T09:51:13Z</time></trkpt><trkpt lat="49.9046539608" lon="8.2772993669"><ele>140.49</ele><time>2012-10-21T09:51:26Z</time></trkpt><trkpt lat="49.9046140630" lon="8.2768502645"><ele>140.97</ele><time>2012-10-21T09:51:44Z</time></trkpt><trkpt lat="49.9045941141" lon="8.2766853925"><ele>140.97</ele><time>2012-10-21T09:51:52Z</time></trkpt><trkpt lat="49.9045815412" lon="8.2765834685"><ele>140.97</ele><time>2012-10-21T09:51:57Z</time></trkpt><trkpt lat="49.9046108779" lon="8.2764997333"><ele>141.45</ele><time>2012-10-21T09:52:12Z</time></trkpt><trkpt lat="49.9046536256" lon="8.2764730789"><ele>141.45</ele><time>2012-10-21T09:52:19Z</time></trkpt><trkpt lat="49.9048857205" lon="8.2763709035"><ele>141.45</ele><time>2012-10-21T09:52:36Z</time></trkpt><trkpt lat="49.9050180707" lon="8.2763262279"><ele>141.93</ele><time>2012-10-21T09:52:46Z</time></trkpt><trkpt lat="49.9052763171" lon="8.2762395591"><ele>141.93</ele><time>2012-10-21T09:53:04Z</time></trkpt><trkpt lat="49.9053251836" lon="8.2762132399"><ele>142.41</ele><time>2012-10-21T09:53:09Z</time></trkpt><trkpt lat="49.9053515028" lon="8.2762010023"><ele>142.41</ele><time>2012-10-21T09:53:11Z</time></trkpt><trkpt lat="49.9055742100" lon="8.2761273254"><ele>142.41</ele><time>2012-10-21T09:53:26Z</time></trkpt><trkpt lat="49.9058111664" lon="8.2760628685"><ele>142.89</ele><time>2012-10-21T09:53:42Z</time></trkpt><trkpt lat="49.9058768805" lon="8.2760466915"><ele>142.89</ele><time>2012-10-21T09:53:46Z</time></trkpt><trkpt lat="49.9059192929" lon="8.2760357950"><ele>142.89</ele><time>2012-10-21T09:53:56Z</time></trkpt><trkpt lat="49.9061423354" lon="8.2759187836"><ele>143.85</ele><time>2012-10-21T09:54:15Z</time></trkpt><trkpt lat="49.9063118175" lon="8.2758629601"><ele>144.82</ele><time>2012-10-21T09:54:29Z</time></trkpt><trkpt lat="49.9063512124" lon="8.2758102380"><ele>145.30</ele><time>2012-10-21T09:54:33Z</time></trkpt><trkpt lat="49.9064076226" lon="8.2757022791"><ele>145.30</ele><time>2012-10-21T09:54:41Z</time></trkpt><trkpt lat="49.9064181838" lon="8.2753892150"><ele>146.26</ele><time>2012-10-21T09:54:57Z</time></trkpt><trkpt lat="49.9064178485" lon="8.2753430307"><ele>146.26</ele><time>2012-10-21T09:54:59Z</time></trkpt><trkpt lat="49.9064139929" lon="8.2750456408"><ele>146.26</ele><time>2012-10-21T09:55:13Z</time></trkpt><trkpt lat="49.9064232130" lon="8.2747917529"><ele>146.74</ele><time>2012-10-21T09:55:27Z</time></trkpt><trkpt lat="49.9064637814" lon="8.2746133022"><ele>147.22</ele><time>2012-10-21T09:55:40Z</time></trkpt><trkpt lat="49.9064633623" lon="8.2746174932"><ele>147.22</ele><time>2012-10-21T09:55:53Z</time></trkpt><trkpt lat="49.9066505302" lon="8.2744623441"><ele>147.70</ele><time>2012-10-21T09:56:10Z</time></trkpt><trkpt lat="49.9069018196" lon="8.2743802015"><ele>148.66</ele><time>2012-10-21T09:56:28Z</time></trkpt><trkpt lat="49.9069780111" lon="8.2743164990"><ele>149.14</ele><time>2012-10-21T09:56:35Z</time></trkpt><trkpt lat="49.9071679451" lon="8.2741055265"><ele>150.58</ele><time>2012-10-21T09:56:51Z</time></trkpt><trkpt lat="49.9073462281" lon="8.2739588432"><ele>151.54</ele><time>2012-10-21T09:57:06Z</time></trkpt><trkpt lat="49.9073842820" lon="8.2738962304"><ele>152.03</ele><time>2012-10-21T09:57:19Z</time></trkpt><trkpt lat="49.9073920771" lon="8.2738957275"><ele>152.03</ele><time>2012-10-21T09:57:40Z</time></trkpt><trkpt lat="49.9074005429" lon="8.2738784607"><ele>152.03</ele><time>2012-10-21T09:57:53Z</time></trkpt><trkpt lat="49.9074548576" lon="8.2738130819"><ele>152.51</ele><time>2012-10-21T09:57:58Z</time></trkpt><trkpt lat="49.9075806700" lon="8.2736895327"><ele>153.47</ele><time>2012-10-21T09:58:07Z</time></trkpt><trkpt lat="49.9077572767" lon="8.2735628821"><ele>154.91</ele><time>2012-10-21T09:58:22Z</time></trkpt><trkpt lat="49.9077925645" lon="8.2734998502"><ele>155.87</ele><time>2012-10-21T09:58:27Z</time></trkpt><trkpt lat="49.9078348093" lon="8.2734483853"><ele>156.35</ele><time>2012-10-21T09:58:31Z</time></trkpt><trkpt lat="49.9079561792" lon="8.2733418513"><ele>157.31</ele><time>2012-10-21T09:58:42Z</time></trkpt><trkpt lat="49.9079857673" lon="8.2733251713"><ele>157.79</ele><time>2012-10-21T09:58:44Z</time></trkpt><trkpt lat="49.9081102386" lon="8.2731658313"><ele>159.72</ele><time>2012-10-21T09:58:58Z</time></trkpt><trkpt lat="49.9082549103" lon="8.2730213273"><ele>161.16</ele><time>2012-10-21T09:59:11Z</time></trkpt><trkpt lat="49.9083905295" lon="8.2728472352"><ele>163.08</ele><time>2012-10-21T09:59:25Z</time></trkpt><trkpt lat="49.9084801320" lon="8.2727633324"><ele>165.00</ele><time>2012-10-21T09:59:37Z</time></trkpt><trkpt lat="49.9084887654" lon="8.2727580518"><ele>165.00</ele><time>2012-10-21T09:59:38Z</time></trkpt><trkpt lat="49.9085997418" lon="8.2726447284"><ele>167.41</ele><time>2012-10-21T09:59:52Z</time></trkpt><trkpt lat="49.9086104706" lon="8.2726341672"><ele>167.89</ele><time>2012-10-21T09:59:54Z</time></trkpt><trkpt lat="49.9086877517" lon="8.2725206763"><ele>170.77</ele><time>2012-10-21T10:00:09Z</time></trkpt><trkpt lat="49.9086900987" lon="8.2725074328"><ele>170.29</ele><time>2012-10-21T10:00:36Z</time></trkpt><trkpt lat="49.9087155797" lon="8.2724546269"><ele>171.73</ele><time>2012-10-21T10:00:53Z</time></trkpt><trkpt lat="49.9087956268" lon="8.2723029144"><ele>173.17</ele><time>2012-10-21T10:01:04Z</time></trkpt><trkpt lat="49.9088801164" lon="8.2721849810"><ele>175.58</ele><time>2012-10-21T10:01:16Z</time></trkpt><trkpt lat="49.9089883268" lon="8.2720769383"><ele>178.46</ele><time>2012-10-21T10:01:30Z</time></trkpt><trkpt lat="49.9090804439" lon="8.2719898503"><ele>180.38</ele><time>2012-10-21T10:01:41Z</time></trkpt><trkpt lat="49.9091762491" lon="8.2718854956"><ele>182.31</ele><time>2012-10-21T10:01:54Z</time></trkpt><trkpt lat="49.9092454836" lon="8.2718133274"><ele>184.23</ele><time>2012-10-21T10:02:05Z</time></trkpt><trkpt lat="49.9093220104" lon="8.2717374712"><ele>185.19</ele><time>2012-10-21T10:02:22Z</time></trkpt><trkpt lat="49.9093630817" lon="8.2716944721"><ele>185.19</ele><time>2012-10-21T10:02:40Z</time></trkpt><trkpt lat="49.9095037300" lon="8.2714850921"><ele>186.15</ele><time>2012-10-21T10:02:56Z</time></trkpt><trkpt lat="49.9096023012" lon="8.2714088168"><ele>186.63</ele><time>2012-10-21T10:03:07Z</time></trkpt><trkpt lat="49.9096356612" lon="8.2713716011"><ele>187.11</ele><time>2012-10-21T10:03:11Z</time></trkpt><trkpt lat="49.9097335618" lon="8.2712892070"><ele>188.08</ele><time>2012-10-21T10:03:21Z</time></trkpt><trkpt lat="49.9099079892" lon="8.2710472215"><ele>189.04</ele><time>2012-10-21T10:03:35Z</time></trkpt><trkpt lat="49.9100732803" lon="8.2708760630"><ele>189.52</ele><time>2012-10-21T10:03:50Z</time></trkpt><trkpt lat="49.9102000147" lon="8.2707762346"><ele>190.00</ele><time>2012-10-21T10:04:10Z</time></trkpt><trkpt lat="49.9103487935" lon="8.2706204150"><ele>191.44</ele><time>2012-10-21T10:04:27Z</time></trkpt><trkpt lat="49.9103678204" lon="8.2705977000"><ele>191.44</ele><time>2012-10-21T10:04:29Z</time></trkpt><trkpt lat="49.9105058704" lon="8.2704329118"><ele>191.92</ele><time>2012-10-21T10:04:45Z</time></trkpt><trkpt lat="49.9106994085" lon="8.2702672016"><ele>192.40</ele><time>2012-10-21T10:05:00Z</time></trkpt><trkpt lat="49.9108310044" lon="8.2701211050"><ele>192.88</ele><time>2012-10-21T10:05:13Z</time></trkpt><trkpt lat="49.9108553957" lon="8.2700838894"><ele>192.88</ele><time>2012-10-21T10:05:16Z</time></trkpt><trkpt lat="49.9110082816" lon="8.2699038461"><ele>193.36</ele><time>2012-10-21T10:05:31Z</time></trkpt><trkpt lat="49.9111635145" lon="8.2697244734"><ele>193.36</ele><time>2012-10-21T10:05:46Z</time></trkpt><trkpt lat="49.9113143887" lon="8.2695675641"><ele>193.84</ele><time>2012-10-21T10:06:04Z</time></trkpt><trkpt lat="49.9113334157" lon="8.2696115691"><ele>193.36</ele><time>2012-10-21T10:06:26Z</time></trkpt><trkpt lat="49.9113295600" lon="8.2695710007"><ele>193.36</ele><time>2012-10-21T10:06:45Z</time></trkpt><trkpt lat="49.9114028178" lon="8.2694796380"><ele>193.84</ele><time>2012-10-21T10:06:58Z</time></trkpt><trkpt lat="49.9114442244" lon="8.2693480421"><ele>194.32</ele><time>2012-10-21T10:07:06Z</time></trkpt><trkpt lat="49.9113972019" lon="8.2691221498"><ele>194.32</ele><time>2012-10-21T10:07:18Z</time></trkpt><trkpt lat="49.9113894068" lon="8.2689601276"><ele>195.28</ele><time>2012-10-21T10:07:38Z</time></trkpt><trkpt lat="49.9113847967" lon="8.2689337246"><ele>195.77</ele><time>2012-10-21T10:07:46Z</time></trkpt><trkpt lat="49.9113630876" lon="8.2689273544"><ele>195.28</ele><time>2012-10-21T10:07:48Z</time></trkpt><trkpt lat="49.9113635905" lon="8.2687461376"><ele>195.28</ele><time>2012-10-21T10:08:02Z</time></trkpt><trkpt lat="49.9113687035" lon="8.2687468082"><ele>195.77</ele><time>2012-10-21T10:08:13Z</time></trkpt><trkpt lat="49.9113878980" lon="8.2687459700"><ele>194.80</ele><time>2012-10-21T10:08:23Z</time></trkpt><trkpt lat="49.9116240162" lon="8.2686846144"><ele>194.80</ele><time>2012-10-21T10:08:41Z</time></trkpt><trkpt lat="49.9118313845" lon="8.2686836924"><ele>194.80</ele><time>2012-10-21T10:08:57Z</time></trkpt><trkpt lat="49.9120701011" lon="8.2686695270"><ele>194.32</ele><time>2012-10-21T10:09:13Z</time></trkpt><trkpt lat="49.9121659901" lon="8.2686443813"><ele>194.80</ele><time>2012-10-21T10:09:21Z</time></trkpt><trkpt lat="49.9123885296" lon="8.2686615642"><ele>194.32</ele><time>2012-10-21T10:09:37Z</time></trkpt><trkpt lat="49.9126165174" lon="8.2686182298"><ele>194.32</ele><time>2012-10-21T10:09:54Z</time></trkpt><trkpt lat="49.9129118118" lon="8.2685795054"><ele>194.80</ele><time>2012-10-21T10:10:14Z</time></trkpt><trkpt lat="49.9131450802" lon="8.2685429603"><ele>195.28</ele><time>2012-10-21T10:10:31Z</time></trkpt><trkpt lat="49.9133556336" lon="8.2684918307"><ele>195.28</ele><time>2012-10-21T10:10:47Z</time></trkpt><trkpt lat="49.9135485850" lon="8.2684388570"><ele>195.77</ele><time>2012-10-21T10:11:03Z</time></trkpt><trkpt lat="49.9135526083" lon="8.2683876436"><ele>195.28</ele><time>2012-10-21T10:11:07Z</time></trkpt><trkpt lat="49.9135261215" lon="8.2681884896"><ele>195.28</ele><time>2012-10-21T10:11:23Z</time></trkpt><trkpt lat="49.9135215115" lon="8.2681797724"><ele>195.28</ele><time>2012-10-21T10:11:43Z</time></trkpt><trkpt lat="49.9135066755" lon="8.2681098673"><ele>194.80</ele><time>2012-10-21T10:11:54Z</time></trkpt><trkpt lat="49.9134517740" lon="8.2677527983"><ele>194.80</ele><time>2012-10-21T10:12:12Z</time></trkpt><trkpt lat="49.9133767560" lon="8.2673199568"><ele>194.80</ele><time>2012-10-21T10:12:32Z</time></trkpt><trkpt lat="49.9133195914" lon="8.2669273484"><ele>195.28</ele><time>2012-10-21T10:12:50Z</time></trkpt><trkpt lat="49.9132572301" lon="8.2665305492"><ele>194.80</ele><time>2012-10-21T10:13:10Z</time></trkpt><trkpt lat="49.9131833017" lon="8.2660723943"><ele>195.28</ele><time>2012-10-21T10:13:33Z</time></trkpt><trkpt lat="49.9131275620" lon="8.2657082845"><ele>195.77</ele><time>2012-10-21T10:13:51Z</time></trkpt><trkpt lat="49.9130714033" lon="8.2653484493"><ele>195.77</ele><time>2012-10-21T10:14:09Z</time></trkpt><trkpt lat="49.9130521249" lon="8.2651175279"><ele>195.77</ele><time>2012-10-21T10:14:21Z</time></trkpt><trkpt lat="49.9130306672" lon="8.2650059648"><ele>195.77</ele><time>2012-10-21T10:14:26Z</time></trkpt><trkpt lat="49.9129844829" lon="8.2646498177"><ele>196.25</ele><time>2012-10-21T10:14:44Z</time></trkpt><trkpt lat="49.9129320960" lon="8.2643018849"><ele>196.25</ele><time>2012-10-21T10:15:02Z</time></trkpt><trkpt lat="49.9128918629" lon="8.2640027348"><ele>196.25</ele><time>2012-10-21T10:15:16Z</time></trkpt><trkpt lat="49.9128518812" lon="8.2636971306"><ele>196.73</ele><time>2012-10-21T10:15:32Z</time></trkpt><trkpt lat="49.9128497858" lon="8.2636790257"><ele>196.73</ele><time>2012-10-21T10:15:33Z</time></trkpt><trkpt lat="49.9128248915" lon="8.2635296602"><ele>196.73</ele><time>2012-10-21T10:15:40Z</time></trkpt><trkpt lat="49.9127917830" lon="8.2633077074"><ele>196.73</ele><time>2012-10-21T10:15:52Z</time></trkpt><trkpt lat="49.9127719179" lon="8.2630763669"><ele>196.73</ele><time>2012-10-21T10:16:02Z</time></trkpt><trkpt lat="49.9127404019" lon="8.2627866883"><ele>196.73</ele><time>2012-10-21T10:16:16Z</time></trkpt><trkpt lat="49.9127054494" lon="8.2624745462"><ele>197.21</ele><time>2012-10-21T10:16:31Z</time></trkpt><trkpt lat="49.9126552418" lon="8.2620916609"><ele>197.69</ele><time>2012-10-21T10:16:49Z</time></trkpt><trkpt lat="49.9126130808" lon="8.2617832907"><ele>198.17</ele><time>2012-10-21T10:17:04Z</time></trkpt><trkpt lat="49.9125748593" lon="8.2614484336"><ele>198.17</ele><time>2012-10-21T10:17:21Z</time></trkpt><trkpt lat="49.9125518091" lon="8.2611582521"><ele>198.17</ele><time>2012-10-21T10:17:36Z</time></trkpt><trkpt lat="49.9124989193" lon="8.2608135883"><ele>198.65</ele><time>2012-10-21T10:17:53Z</time></trkpt><trkpt lat="49.9124801438" lon="8.2606077287"><ele>198.65</ele><time>2012-10-21T10:18:03Z</time></trkpt><trkpt lat="49.9124341272" lon="8.2603074051"><ele>199.13</ele><time>2012-10-21T10:18:18Z</time></trkpt><trkpt lat="49.9123897031" lon="8.2599541079"><ele>199.13</ele><time>2012-10-21T10:18:36Z</time></trkpt><trkpt lat="49.9123840034" lon="8.2598171476"><ele>199.61</ele><time>2012-10-21T10:18:48Z</time></trkpt><trkpt lat="49.9123803154" lon="8.2598142140"><ele>199.61</ele><time>2012-10-21T10:19:19Z</time></trkpt><trkpt lat="49.9123793934" lon="8.2597675268"><ele>203.46</ele><time>2012-10-21T10:19:36Z</time></trkpt><trkpt lat="49.9123794772" lon="8.2597671077"><ele>200.09</ele><time>2012-10-21T10:19:37Z</time></trkpt><trkpt lat="49.9123835005" lon="8.2597651798"><ele>196.73</ele><time>2012-10-21T10:19:47Z</time></trkpt><trkpt lat="49.9123852607" lon="8.2597648446"><ele>200.57</ele><time>2012-10-21T10:19:48Z</time></trkpt><trkpt lat="49.9123719335" lon="8.2596461568"><ele>199.61</ele><time>2012-10-21T10:20:07Z</time></trkpt><trkpt lat="49.9123115838" lon="8.2592253014"><ele>200.09</ele><time>2012-10-21T10:20:28Z</time></trkpt><trkpt lat="49.9122897070" lon="8.2589346170"><ele>200.09</ele><time>2012-10-21T10:20:43Z</time></trkpt><trkpt lat="49.9122472107" lon="8.2585380692"><ele>200.57</ele><time>2012-10-21T10:21:00Z</time></trkpt><trkpt lat="49.9122063909" lon="8.2582099177"><ele>201.05</ele><time>2012-10-21T10:21:18Z</time></trkpt><trkpt lat="49.9121740367" lon="8.2579793315"><ele>201.05</ele><time>2012-10-21T10:21:31Z</time></trkpt><trkpt lat="49.9121791497" lon="8.2578656729"><ele>201.53</ele><time>2012-10-21T10:21:50Z</time></trkpt><trkpt lat="49.9121768028" lon="8.2578574587"><ele>201.05</ele><time>2012-10-21T10:22:09Z</time></trkpt><trkpt lat="49.9121517409" lon="8.2576246932"><ele>201.53</ele><time>2012-10-21T10:22:23Z</time></trkpt><trkpt lat="49.9121390004" lon="8.2572288997"><ele>201.53</ele><time>2012-10-21T10:22:42Z</time></trkpt><trkpt lat="49.9121131003" lon="8.2568188570"><ele>201.53</ele><time>2012-10-21T10:23:00Z</time></trkpt><trkpt lat="49.9120774772" lon="8.2564296853"><ele>201.53</ele><time>2012-10-21T10:23:18Z</time></trkpt><trkpt lat="49.9120522477" lon="8.2561011985"><ele>202.01</ele><time>2012-10-21T10:23:33Z</time></trkpt><trkpt lat="49.9120314606" lon="8.2557317242"><ele>202.49</ele><time>2012-10-21T10:23:50Z</time></trkpt><trkpt lat="49.9119942449" lon="8.2554189954"><ele>202.49</ele><time>2012-10-21T10:24:05Z</time></trkpt><trkpt lat="49.9119692668" lon="8.2550260518"><ele>202.98</ele><time>2012-10-21T10:24:23Z</time></trkpt><trkpt lat="49.9119315483" lon="8.2546723355"><ele>203.46</ele><time>2012-10-21T10:24:40Z</time></trkpt><trkpt lat="49.9119366612" lon="8.2546056155"><ele>203.46</ele><time>2012-10-21T10:24:43Z</time></trkpt><trkpt lat="49.9118866213" lon="8.2541777194"><ele>203.94</ele><time>2012-10-21T10:25:04Z</time></trkpt><trkpt lat="49.9118467234" lon="8.2537634019"><ele>204.90</ele><time>2012-10-21T10:25:23Z</time></trkpt><trkpt lat="49.9118030537" lon="8.2534248568"><ele>205.38</ele><time>2012-10-21T10:25:39Z</time></trkpt><trkpt lat="49.9117965996" lon="8.2532703783"><ele>205.86</ele><time>2012-10-21T10:25:47Z</time></trkpt><trkpt lat="49.9117926601" lon="8.2531367708"><ele>205.38</ele><time>2012-10-21T10:26:02Z</time></trkpt><trkpt lat="49.9117946718" lon="8.2531398721"><ele>205.86</ele><time>2012-10-21T10:26:20Z</time></trkpt><trkpt lat="49.9118006229" lon="8.2531404588"><ele>205.86</ele><time>2012-10-21T10:26:44Z</time></trkpt><trkpt lat="49.9118022155" lon="8.2530908380"><ele>205.38</ele><time>2012-10-21T10:26:47Z</time></trkpt><trkpt lat="49.9117376748" lon="8.2530454919"><ele>204.90</ele><time>2012-10-21T10:26:54Z</time></trkpt><trkpt lat="49.9117126968" lon="8.2530544605"><ele>206.34</ele><time>2012-10-21T10:26:56Z</time></trkpt><trkpt lat="49.9116603099" lon="8.2530855574"><ele>202.98</ele><time>2012-10-21T10:27:01Z</time></trkpt><trkpt lat="49.9116544425" lon="8.2530910056"><ele>211.15</ele><time>2012-10-21T10:27:02Z</time></trkpt><trkpt lat="49.9116552807" lon="8.2530941069"><ele>206.82</ele><time>2012-10-21T10:27:03Z</time></trkpt><trkpt lat="49.9115435500" lon="8.2531580608"><ele>206.82</ele><time>2012-10-21T10:27:24Z</time></trkpt><trkpt lat="49.9113369361" lon="8.2532613259"><ele>207.78</ele><time>2012-10-21T10:27:41Z</time></trkpt><trkpt lat="49.9111463316" lon="8.2533990405"><ele>209.22</ele><time>2012-10-21T10:27:58Z</time></trkpt><trkpt lat="49.9109667912" lon="8.2534945104"><ele>210.19</ele><time>2012-10-21T10:28:12Z</time></trkpt><trkpt lat="49.9108167551" lon="8.2535999548"><ele>211.15</ele><time>2012-10-21T10:28:25Z</time></trkpt><trkpt lat="49.9106561579" lon="8.2536974363"><ele>212.11</ele><time>2012-10-21T10:28:39Z</time></trkpt><trkpt lat="49.9106441718" lon="8.2537015434"><ele>212.11</ele><time>2012-10-21T10:28:40Z</time></trkpt><trkpt lat="49.9105384760" lon="8.2536008768"><ele>213.07</ele><time>2012-10-21T10:28:50Z</time></trkpt><trkpt lat="49.9105026852" lon="8.2534622401"><ele>213.55</ele><time>2012-10-21T10:28:59Z</time></trkpt><trkpt lat="49.9104326125" lon="8.2531630900"><ele>214.51</ele><time>2012-10-21T10:29:15Z</time></trkpt><trkpt lat="49.9103655573" lon="8.2529081963"><ele>214.99</ele><time>2012-10-21T10:29:29Z</time></trkpt><trkpt lat="49.9103724305" lon="8.2528544683"><ele>214.99</ele><time>2012-10-21T10:29:32Z</time></trkpt><trkpt lat="49.9103417527" lon="8.2527874969"><ele>214.99</ele><time>2012-10-21T10:29:36Z</time></trkpt><trkpt lat="49.9102787208" lon="8.2525972277"><ele>215.47</ele><time>2012-10-21T10:29:48Z</time></trkpt><trkpt lat="49.9101995956" lon="8.2523118239"><ele>215.95</ele><time>2012-10-21T10:30:05Z</time></trkpt><trkpt lat="49.9101275112" lon="8.2520924695"><ele>216.43</ele><time>2012-10-21T10:30:20Z</time></trkpt><trkpt lat="49.9101263378" lon="8.2520788070"><ele>216.43</ele><time>2012-10-21T10:30:21Z</time></trkpt><trkpt lat="49.9101208057" lon="8.2519062236"><ele>216.43</ele><time>2012-10-21T10:30:33Z</time></trkpt><trkpt lat="49.9101112504" lon="8.2518071495"><ele>216.43</ele><time>2012-10-21T10:30:38Z</time></trkpt><trkpt lat="49.9100626353" lon="8.2515704446"><ele>216.91</ele><time>2012-10-21T10:30:55Z</time></trkpt><trkpt lat="49.9100533314" lon="8.2515362464"><ele>216.91</ele><time>2012-10-21T10:30:57Z</time></trkpt><trkpt lat="49.9099752959" lon="8.2512810174"><ele>217.40</ele><time>2012-10-21T10:31:11Z</time></trkpt><trkpt lat="49.9098791555" lon="8.2509329170"><ele>217.88</ele><time>2012-10-21T10:31:29Z</time></trkpt><trkpt lat="49.9097993597" lon="8.2506317552"><ele>218.36</ele><time>2012-10-21T10:31:45Z</time></trkpt><trkpt lat="49.9097411055" lon="8.2503580861"><ele>218.84</ele><time>2012-10-21T10:32:01Z</time></trkpt><trkpt lat="49.9096647464" lon="8.2500662282"><ele>219.80</ele><time>2012-10-21T10:32:17Z</time></trkpt><trkpt lat="49.9096387625" lon="8.2499306090"><ele>220.28</ele><time>2012-10-21T10:32:24Z</time></trkpt><trkpt lat="49.9095998704" lon="8.2497778907"><ele>220.28</ele><time>2012-10-21T10:32:32Z</time></trkpt><trkpt lat="49.9095183983" lon="8.2493932452"><ele>220.76</ele><time>2012-10-21T10:32:49Z</time></trkpt><trkpt lat="49.9095008802" lon="8.2492971886"><ele>221.24</ele><time>2012-10-21T10:32:53Z</time></trkpt><trkpt lat="49.9094306398" lon="8.2489986252"><ele>222.20</ele><time>2012-10-21T10:33:09Z</time></trkpt><trkpt lat="49.9093935080" lon="8.2488634251"><ele>222.20</ele><time>2012-10-21T10:33:24Z</time></trkpt><trkpt lat="49.9093904067" lon="8.2488634251"><ele>222.20</ele><time>2012-10-21T10:33:50Z</time></trkpt><trkpt lat="49.9093741458" lon="8.2488723937"><ele>222.68</ele><time>2012-10-21T10:34:04Z</time></trkpt><trkpt lat="49.9091365188" lon="8.2490008883"><ele>223.64</ele><time>2012-10-21T10:34:22Z</time></trkpt><trkpt lat="49.9089191761" lon="8.2491060812"><ele>224.61</ele><time>2012-10-21T10:34:39Z</time></trkpt><trkpt lat="49.9086737540" lon="8.2492514234"><ele>225.57</ele><time>2012-10-21T10:35:01Z</time></trkpt><trkpt lat="49.9084205367" lon="8.2493740506"><ele>226.05</ele><time>2012-10-21T10:35:21Z</time></trkpt><trkpt lat="49.9082099833" lon="8.2494701911"><ele>226.53</ele><time>2012-10-21T10:35:35Z</time></trkpt><trkpt lat="49.9081645533" lon="8.2495078258"><ele>226.53</ele><time>2012-10-21T10:35:52Z</time></trkpt><trkpt lat="49.9081277568" lon="8.2495248411"><ele>227.01</ele><time>2012-10-21T10:36:06Z</time></trkpt><trkpt lat="49.9081259966" lon="8.2495186385"><ele>227.01</ele><time>2012-10-21T10:36:12Z</time></trkpt><trkpt lat="49.9080722686" lon="8.2494278625"><ele>227.49</ele><time>2012-10-21T10:36:18Z</time></trkpt><trkpt lat="49.9079338834" lon="8.2491106912"><ele>228.93</ele><time>2012-10-21T10:36:37Z</time></trkpt><trkpt lat="49.9078363180" lon="8.2488516066"><ele>229.89</ele><time>2012-10-21T10:36:51Z</time></trkpt><trkpt lat="49.9077060632" lon="8.2485521212"><ele>230.37</ele><time>2012-10-21T10:37:07Z</time></trkpt><trkpt lat="49.9076289497" lon="8.2483667973"><ele>230.85</ele><time>2012-10-21T10:37:16Z</time></trkpt><trkpt lat="49.9075463042" lon="8.2481642067"><ele>231.33</ele><time>2012-10-21T10:37:27Z</time></trkpt><trkpt lat="49.9074683525" lon="8.2480534818"><ele>231.33</ele><time>2012-10-21T10:37:43Z</time></trkpt><trkpt lat="49.9074584618" lon="8.2480494585"><ele>231.81</ele><time>2012-10-21T10:37:44Z</time></trkpt><trkpt lat="49.9074360821" lon="8.2480529789"><ele>231.81</ele><time>2012-10-21T10:37:46Z</time></trkpt><trkpt lat="49.9073987827" lon="8.2480834890"><ele>231.33</ele><time>2012-10-21T10:37:50Z</time></trkpt><trkpt lat="49.9072139617" lon="8.2481820602"><ele>231.33</ele><time>2012-10-21T10:38:09Z</time></trkpt><trkpt lat="49.9070856348" lon="8.2482921146"><ele>230.37</ele><time>2012-10-21T10:38:20Z</time></trkpt><trkpt lat="49.9070615787" lon="8.2483862434"><ele>230.37</ele><time>2012-10-21T10:38:36Z</time></trkpt><trkpt lat="49.9070589803" lon="8.2483760174"><ele>230.37</ele><time>2012-10-21T10:38:37Z</time></trkpt><trkpt lat="49.9070771690" lon="8.2482989877"><ele>230.37</ele><time>2012-10-21T10:38:42Z</time></trkpt><trkpt lat="49.9071422126" lon="8.2482213713"><ele>231.33</ele><time>2012-10-21T10:38:50Z</time></trkpt><trkpt lat="49.9071318191" lon="8.2481353730"><ele>231.33</ele><time>2012-10-21T10:39:01Z</time></trkpt><trkpt lat="49.9071278796" lon="8.2481189445"><ele>231.33</ele><time>2012-10-21T10:39:02Z</time></trkpt><trkpt lat="49.9070509337" lon="8.2477876917"><ele>232.30</ele><time>2012-10-21T10:39:19Z</time></trkpt><trkpt lat="49.9069297314" lon="8.2474634796"><ele>232.78</ele><time>2012-10-21T10:39:37Z</time></trkpt><trkpt lat="49.9068133906" lon="8.2470950112"><ele>233.26</ele><time>2012-10-21T10:39:56Z</time></trkpt><trkpt lat="49.9066859856" lon="8.2466894109"><ele>233.74</ele><time>2012-10-21T10:40:16Z</time></trkpt><trkpt lat="49.9065658730" lon="8.2463191822"><ele>233.74</ele><time>2012-10-21T10:40:34Z</time></trkpt><trkpt lat="49.9064736720" lon="8.2459781226"><ele>233.74</ele><time>2012-10-21T10:40:52Z</time></trkpt><trkpt lat="49.9063552357" lon="8.2456353866"><ele>234.22</ele><time>2012-10-21T10:41:10Z</time></trkpt><trkpt lat="49.9062406551" lon="8.2453062292"><ele>234.22</ele><time>2012-10-21T10:41:27Z</time></trkpt><trkpt lat="49.9061769526" lon="8.2449391857"><ele>234.22</ele><time>2012-10-21T10:41:46Z</time></trkpt><trkpt lat="49.9061361328" lon="8.2446182426"><ele>234.70</ele><time>2012-10-21T10:42:03Z</time></trkpt><trkpt lat="49.9060970731" lon="8.2442900911"><ele>234.70</ele><time>2012-10-21T10:42:19Z</time></trkpt><trkpt lat="49.9060249049" lon="8.2439370453"><ele>235.66</ele><time>2012-10-21T10:42:36Z</time></trkpt><trkpt lat="49.9060155172" lon="8.2439265680"><ele>235.66</ele><time>2012-10-21T10:42:37Z</time></trkpt><trkpt lat="49.9057525769" lon="8.2438289188"><ele>236.14</ele><time>2012-10-21T10:42:58Z</time></trkpt><trkpt lat="49.9055201467" lon="8.2437268272"><ele>236.14</ele><time>2012-10-21T10:43:16Z</time></trkpt><trkpt lat="49.9054416921" lon="8.2436643820"><ele>236.14</ele><time>2012-10-21T10:43:31Z</time></trkpt><trkpt lat="49.9053867068" lon="8.2436359674"><ele>235.66</ele><time>2012-10-21T10:43:36Z</time></trkpt><trkpt lat="49.9052036460" lon="8.2434625458"><ele>235.66</ele><time>2012-10-21T10:43:53Z</time></trkpt><trkpt lat="49.9052235950" lon="8.2433698419"><ele>236.14</ele><time>2012-10-21T10:44:04Z</time></trkpt><trkpt lat="49.9052256905" lon="8.2433603704"><ele>235.18</ele><time>2012-10-21T10:44:24Z</time></trkpt><trkpt lat="49.9052313901" lon="8.2433544192"><ele>235.66</ele><time>2012-10-21T10:44:51Z</time></trkpt><trkpt lat="49.9052308872" lon="8.2433523238"><ele>235.66</ele><time>2012-10-21T10:45:16Z</time></trkpt><trkpt lat="49.9052269477" lon="8.2433475461"><ele>235.66</ele><time>2012-10-21T10:45:48Z</time></trkpt><trkpt lat="49.9052293785" lon="8.2433493901"><ele>235.66</ele><time>2012-10-21T10:46:30Z</time></trkpt><trkpt lat="49.9052297976" lon="8.2433503959"><ele>235.66</ele><time>2012-10-21T10:47:03Z</time></trkpt><trkpt lat="49.9052307196" lon="8.2433482166"><ele>235.66</ele><time>2012-10-21T10:47:42Z</time></trkpt><trkpt lat="49.9052313063" lon="8.2433472108"><ele>235.66</ele><time>2012-10-21T10:48:12Z</time></trkpt><trkpt lat="49.9052314740" lon="8.2433481328"><ele>235.66</ele><time>2012-10-21T10:48:46Z</time></trkpt><trkpt lat="49.9052315578" lon="8.2433454506"><ele>235.66</ele><time>2012-10-21T10:49:21Z</time></trkpt><trkpt lat="49.9052341562" lon="8.2433442771"><ele>235.66</ele><time>2012-10-21T10:50:02Z</time></trkpt><trkpt lat="49.9052203260" lon="8.2433485519"><ele>235.66</ele><time>2012-10-21T10:50:23Z</time></trkpt><trkpt lat="49.9052194878" lon="8.2433213945"><ele>236.14</ele><time>2012-10-21T10:50:49Z</time></trkpt><trkpt lat="49.9052343238" lon="8.2433296926"><ele>236.14</ele><time>2012-10-21T10:51:19Z</time></trkpt><trkpt lat="49.9052384309" lon="8.2433330454"><ele>236.14</ele><time>2012-10-21T10:51:51Z</time></trkpt><trkpt lat="49.9052369222" lon="8.2433293574"><ele>236.14</ele><time>2012-10-21T10:52:18Z</time></trkpt><trkpt lat="49.9052376766" lon="8.2433292735"><ele>236.14</ele><time>2012-10-21T10:52:46Z</time></trkpt><trkpt lat="49.9052361678" lon="8.2433314528"><ele>236.14</ele><time>2012-10-21T10:53:11Z</time></trkpt><trkpt lat="49.9052381795" lon="8.2433334645"><ele>236.14</ele><time>2012-10-21T10:53:38Z</time></trkpt><trkpt lat="49.9052380957" lon="8.2433414273"><ele>236.14</ele><time>2012-10-21T10:54:03Z</time></trkpt><trkpt lat="49.9052360002" lon="8.2433447801"><ele>236.14</ele><time>2012-10-21T10:54:47Z</time></trkpt><trkpt lat="49.9052344076" lon="8.2433435228"><ele>236.14</ele><time>2012-10-21T10:55:28Z</time></trkpt><trkpt lat="49.9052334018" lon="8.2433429360"><ele>236.14</ele><time>2012-10-21T10:55:57Z</time></trkpt><trkpt lat="49.9052337371" lon="8.2433539163"><ele>236.14</ele><time>2012-10-21T10:56:22Z</time></trkpt><trkpt lat="49.9052328989" lon="8.2433545031"><ele>236.14</ele><time>2012-10-21T10:56:47Z</time></trkpt><trkpt lat="49.9052292947" lon="8.2433559280"><ele>236.14</ele><time>2012-10-21T10:57:27Z</time></trkpt><trkpt lat="49.9052286241" lon="8.2433559280"><ele>236.62</ele><time>2012-10-21T10:57:59Z</time></trkpt><trkpt lat="49.9052443821" lon="8.2433240768"><ele>235.66</ele><time>2012-10-21T10:58:26Z</time></trkpt><trkpt lat="49.9052866269" lon="8.2432207279"><ele>236.62</ele><time>2012-10-21T10:58:34Z</time></trkpt><trkpt lat="49.9051648378" lon="8.2428769860"><ele>236.62</ele><time>2012-10-21T10:58:55Z</time></trkpt><trkpt lat="49.9050126225" lon="8.2425432187"><ele>236.62</ele><time>2012-10-21T10:59:13Z</time></trkpt><trkpt lat="49.9048886541" lon="8.2422340941"><ele>236.62</ele><time>2012-10-21T10:59:31Z</time></trkpt><trkpt lat="49.9048067629" lon="8.2419922762"><ele>236.62</ele><time>2012-10-21T10:59:46Z</time></trkpt><trkpt lat="49.9046787713" lon="8.2416619454"><ele>236.62</ele><time>2012-10-21T11:00:08Z</time></trkpt><trkpt lat="49.9045656994" lon="8.2413498871"><ele>236.14</ele><time>2012-10-21T11:00:26Z</time></trkpt><trkpt lat="49.9044249672" lon="8.2410159521"><ele>236.14</ele><time>2012-10-21T11:00:45Z</time></trkpt><trkpt lat="49.9042723328" lon="8.2406607270"><ele>236.14</ele><time>2012-10-21T11:01:05Z</time></trkpt><trkpt lat="49.9041486997" lon="8.2403082680"><ele>236.14</ele><time>2012-10-21T11:01:24Z</time></trkpt><trkpt lat="49.9040084705" lon="8.2399346866"><ele>236.62</ele><time>2012-10-21T11:01:44Z</time></trkpt><trkpt lat="49.9038773775" lon="8.2395950519"><ele>237.58</ele><time>2012-10-21T11:02:02Z</time></trkpt><trkpt lat="49.9037123378" lon="8.2392080594"><ele>237.58</ele><time>2012-10-21T11:02:21Z</time></trkpt><trkpt lat="49.9036477134" lon="8.2390638068"><ele>237.58</ele><time>2012-10-21T11:02:31Z</time></trkpt><trkpt lat="49.9035443645" lon="8.2387197297"><ele>238.06</ele><time>2012-10-21T11:02:49Z</time></trkpt><trkpt lat="49.9034488108" lon="8.2384196576"><ele>238.54</ele><time>2012-10-21T11:03:07Z</time></trkpt><trkpt lat="49.9033275247" lon="8.2380832080"><ele>239.02</ele><time>2012-10-21T11:03:26Z</time></trkpt><trkpt lat="49.9031976052" lon="8.2377183437"><ele>239.51</ele><time>2012-10-21T11:03:44Z</time></trkpt><trkpt lat="49.9030761514" lon="8.2374285813"><ele>239.99</ele><time>2012-10-21T11:04:01Z</time></trkpt><trkpt lat="49.9029607326" lon="8.2371078897"><ele>239.99</ele><time>2012-10-21T11:04:17Z</time></trkpt><trkpt lat="49.9028417934" lon="8.2368229050"><ele>240.47</ele><time>2012-10-21T11:04:34Z</time></trkpt><trkpt lat="49.9027178250" lon="8.2364519220"><ele>240.95</ele><time>2012-10-21T11:04:54Z</time></trkpt><trkpt lat="49.9026054237" lon="8.2361927535"><ele>240.95</ele><time>2012-10-21T11:05:11Z</time></trkpt><trkpt lat="49.9025894981" lon="8.2361748163"><ele>241.43</ele><time>2012-10-21T11:05:27Z</time></trkpt><trkpt lat="49.9025922641" lon="8.2361806836"><ele>241.43</ele><time>2012-10-21T11:05:43Z</time></trkpt><trkpt lat="49.9025573116" lon="8.2361971959"><ele>240.95</ele><time>2012-10-21T11:05:58Z</time></trkpt><trkpt lat="49.9025352672" lon="8.2362179831"><ele>240.47</ele><time>2012-10-21T11:06:00Z</time></trkpt><trkpt lat="49.9023014959" lon="8.2363941707"><ele>240.47</ele><time>2012-10-21T11:06:18Z</time></trkpt><trkpt lat="49.9020791240" lon="8.2365863677"><ele>240.47</ele><time>2012-10-21T11:06:37Z</time></trkpt><trkpt lat="49.9018290918" lon="8.2367928978"><ele>239.99</ele><time>2012-10-21T11:06:59Z</time></trkpt><trkpt lat="49.9016033672" lon="8.2369850110"><ele>239.51</ele><time>2012-10-21T11:07:16Z</time></trkpt><trkpt lat="49.9013530836" lon="8.2372026891"><ele>239.02</ele><time>2012-10-21T11:07:36Z</time></trkpt><trkpt lat="49.9011242576" lon="8.2373830676"><ele>238.06</ele><time>2012-10-21T11:07:55Z</time></trkpt><trkpt lat="49.9008805957" lon="8.2375699002"><ele>238.06</ele><time>2012-10-21T11:08:14Z</time></trkpt><trkpt lat="49.9007421266" lon="8.2376931980"><ele>237.10</ele><time>2012-10-21T11:08:26Z</time></trkpt><trkpt lat="49.9005599879" lon="8.2378389593"><ele>237.10</ele><time>2012-10-21T11:08:43Z</time></trkpt><trkpt lat="49.9004892446" lon="8.2378814556"><ele>236.14</ele><time>2012-10-21T11:08:50Z</time></trkpt><trkpt lat="49.9003701378" lon="8.2376803737"><ele>236.62</ele><time>2012-10-21T11:09:06Z</time></trkpt><trkpt lat="49.9002852291" lon="8.2373254001"><ele>237.10</ele><time>2012-10-21T11:09:23Z</time></trkpt><trkpt lat="49.9001868255" lon="8.2369635534"><ele>237.10</ele><time>2012-10-21T11:09:40Z</time></trkpt><trkpt lat="49.9000866618" lon="8.2365390100"><ele>238.06</ele><time>2012-10-21T11:10:02Z</time></trkpt><trkpt lat="49.9000000767" lon="8.2360778376"><ele>239.51</ele><time>2012-10-21T11:10:24Z</time></trkpt><trkpt lat="49.8998736776" lon="8.2357220259"><ele>239.99</ele><time>2012-10-21T11:10:43Z</time></trkpt><trkpt lat="49.8996202927" lon="8.2355014980"><ele>239.02</ele><time>2012-10-21T11:11:04Z</time></trkpt><trkpt lat="49.8994167801" lon="8.2353404816"><ele>238.54</ele><time>2012-10-21T11:11:23Z</time></trkpt><trkpt lat="49.8994322866" lon="8.2353438344"><ele>238.06</ele><time>2012-10-21T11:11:49Z</time></trkpt><trkpt lat="49.8994210549" lon="8.2353403140"><ele>238.54</ele><time>2012-10-21T11:12:06Z</time></trkpt><trkpt lat="49.8993311170" lon="8.2351964805"><ele>237.58</ele><time>2012-10-21T11:12:28Z</time></trkpt><trkpt lat="49.8991758842" lon="8.2349450234"><ele>237.10</ele><time>2012-10-21T11:12:45Z</time></trkpt><trkpt lat="49.8991655745" lon="8.2349283434"><ele>237.10</ele><time>2012-10-21T11:13:04Z</time></trkpt><trkpt lat="49.8991660774" lon="8.2349282596"><ele>237.10</ele><time>2012-10-21T11:13:19Z</time></trkpt><trkpt lat="49.8990995251" lon="8.2349279243"><ele>236.62</ele><time>2012-10-21T11:13:25Z</time></trkpt><trkpt lat="49.8989068251" lon="8.2350611966"><ele>233.26</ele><time>2012-10-21T11:13:43Z</time></trkpt><trkpt lat="49.8986930866" lon="8.2351823151"><ele>230.37</ele><time>2012-10-21T11:14:01Z</time></trkpt><trkpt lat="49.8985209223" lon="8.2352831494"><ele>228.45</ele><time>2012-10-21T11:14:14Z</time></trkpt><trkpt lat="49.8982663639" lon="8.2353524677"><ele>227.01</ele><time>2012-10-21T11:14:31Z</time></trkpt><trkpt lat="49.8980491050" lon="8.2353264838"><ele>228.45</ele><time>2012-10-21T11:14:45Z</time></trkpt><trkpt lat="49.8978932854" lon="8.2352994941"><ele>230.37</ele><time>2012-10-21T11:14:56Z</time></trkpt><trkpt lat="49.8976681475" lon="8.2351702452"><ele>232.30</ele><time>2012-10-21T11:15:13Z</time></trkpt><trkpt lat="49.8975600209" lon="8.2350798044"><ele>233.26</ele><time>2012-10-21T11:15:28Z</time></trkpt><trkpt lat="49.8975528125" lon="8.2350767031"><ele>233.74</ele><time>2012-10-21T11:15:49Z</time></trkpt><trkpt lat="49.8973811511" lon="8.2350184489"><ele>233.26</ele><time>2012-10-21T11:16:04Z</time></trkpt><trkpt lat="49.8971783090" lon="8.2349394914"><ele>234.22</ele><time>2012-10-21T11:16:21Z</time></trkpt><trkpt lat="49.8971757945" lon="8.2349349651"><ele>234.22</ele><time>2012-10-21T11:16:23Z</time></trkpt><trkpt lat="49.8970892094" lon="8.2348991744"><ele>233.74</ele><time>2012-10-21T11:16:30Z</time></trkpt><trkpt lat="49.8968523368" lon="8.2347554248"><ele>234.22</ele><time>2012-10-21T11:16:48Z</time></trkpt><trkpt lat="49.8966664262" lon="8.2345423568"><ele>234.22</ele><time>2012-10-21T11:17:03Z</time></trkpt><trkpt lat="49.8965351656" lon="8.2345455419"><ele>233.26</ele><time>2012-10-21T11:17:17Z</time></trkpt><trkpt lat="49.8965239339" lon="8.2345794886"><ele>232.78</ele><time>2012-10-21T11:17:19Z</time></trkpt><trkpt lat="49.8963592295" lon="8.2345985994"><ele>233.26</ele><time>2012-10-21T11:17:32Z</time></trkpt><trkpt lat="49.8962101992" lon="8.2343564462"><ele>231.33</ele><time>2012-10-21T11:17:48Z</time></trkpt><trkpt lat="49.8961078562" lon="8.2341458928"><ele>231.33</ele><time>2012-10-21T11:18:02Z</time></trkpt><trkpt lat="49.8961060960" lon="8.2341439649"><ele>231.33</ele><time>2012-10-21T11:18:03Z</time></trkpt><trkpt lat="49.8959574010" lon="8.2338651828"><ele>230.85</ele><time>2012-10-21T11:18:20Z</time></trkpt><trkpt lat="49.8958379589" lon="8.2336024102"><ele>229.89</ele><time>2012-10-21T11:18:36Z</time></trkpt><trkpt lat="49.8957263120" lon="8.2334172539"><ele>225.57</ele><time>2012-10-21T11:18:47Z</time></trkpt><trkpt lat="49.8957158346" lon="8.2334035076"><ele>233.26</ele><time>2012-10-21T11:18:48Z</time></trkpt><trkpt lat="49.8957066983" lon="8.2333904319"><ele>229.41</ele><time>2012-10-21T11:18:49Z</time></trkpt><trkpt lat="49.8956906050" lon="8.2333667111"><ele>225.09</ele><time>2012-10-21T11:18:51Z</time></trkpt><trkpt lat="49.8956827261" lon="8.2333511207"><ele>233.26</ele><time>2012-10-21T11:18:52Z</time></trkpt><trkpt lat="49.8956735898" lon="8.2333332673"><ele>229.41</ele><time>2012-10-21T11:18:53Z</time></trkpt><trkpt lat="49.8955774494" lon="8.2331741787"><ele>226.53</ele><time>2012-10-21T11:19:04Z</time></trkpt><trkpt lat="49.8955712467" lon="8.2331580017"><ele>231.33</ele><time>2012-10-21T11:19:05Z</time></trkpt><trkpt lat="49.8955639545" lon="8.2331410702"><ele>226.53</ele><time>2012-10-21T11:19:06Z</time></trkpt><trkpt lat="49.8955556564" lon="8.2331250608"><ele>231.33</ele><time>2012-10-21T11:19:07Z</time></trkpt><trkpt lat="49.8955299240" lon="8.2330933772"><ele>226.53</ele><time>2012-10-21T11:19:19Z</time></trkpt><trkpt lat="49.8955295049" lon="8.2330931257"><ele>230.37</ele><time>2012-10-21T11:19:20Z</time></trkpt><trkpt lat="49.8955290020" lon="8.2330945507"><ele>225.57</ele><time>2012-10-21T11:19:26Z</time></trkpt><trkpt lat="49.8955293372" lon="8.2330948021"><ele>232.30</ele><time>2012-10-21T11:19:27Z</time></trkpt><trkpt lat="49.8955294210" lon="8.2330944669"><ele>228.93</ele><time>2012-10-21T11:19:28Z</time></trkpt><trkpt lat="49.8955236375" lon="8.2331020106"><ele>232.30</ele><time>2012-10-21T11:19:49Z</time></trkpt><trkpt lat="49.8955238052" lon="8.2331033517"><ele>228.93</ele><time>2012-10-21T11:19:50Z</time></trkpt><trkpt lat="49.8955233861" lon="8.2331046090"><ele>228.45</ele><time>2012-10-21T11:19:54Z</time></trkpt><trkpt lat="49.8953970708" lon="8.2328830753"><ele>228.45</ele><time>2012-10-21T11:20:10Z</time></trkpt><trkpt lat="49.8953667283" lon="8.2328365557"><ele>225.09</ele><time>2012-10-21T11:20:23Z</time></trkpt><trkpt lat="49.8953657225" lon="8.2328362204"><ele>231.33</ele><time>2012-10-21T11:20:24Z</time></trkpt><trkpt lat="49.8953650519" lon="8.2328347117"><ele>226.53</ele><time>2012-10-21T11:20:25Z</time></trkpt><trkpt lat="49.8953292612" lon="8.2327740267"><ele>231.33</ele><time>2012-10-21T11:20:33Z</time></trkpt><trkpt lat="49.8953195382" lon="8.2327595260"><ele>229.41</ele><time>2012-10-21T11:20:34Z</time></trkpt><trkpt lat="49.8953091446" lon="8.2327336259"><ele>227.97</ele><time>2012-10-21T11:20:36Z</time></trkpt><trkpt lat="49.8952529859" lon="8.2326503936"><ele>227.97</ele><time>2012-10-21T11:20:43Z</time></trkpt><trkpt lat="49.8952349648" lon="8.2326203026"><ele>227.97</ele><time>2012-10-21T11:20:45Z</time></trkpt><trkpt lat="49.8950586934" lon="8.2323584519"><ele>227.97</ele><time>2012-10-21T11:21:02Z</time></trkpt><trkpt lat="49.8949306179" lon="8.2321665064"><ele>227.49</ele><time>2012-10-21T11:21:16Z</time></trkpt><trkpt lat="49.8947181366" lon="8.2319048233"><ele>227.01</ele><time>2012-10-21T11:21:33Z</time></trkpt><trkpt lat="49.8945243470" lon="8.2316737343"><ele>226.53</ele><time>2012-10-21T11:21:50Z</time></trkpt><trkpt lat="49.8943111114" lon="8.2314035855"><ele>226.05</ele><time>2012-10-21T11:22:09Z</time></trkpt><trkpt lat="49.8941756599" lon="8.2312589977"><ele>226.05</ele><time>2012-10-21T11:22:21Z</time></trkpt><trkpt lat="49.8940039147" lon="8.2311160024"><ele>225.57</ele><time>2012-10-21T11:22:36Z</time></trkpt><trkpt lat="49.8938819580" lon="8.2309544832"><ele>224.61</ele><time>2012-10-21T11:22:49Z</time></trkpt><trkpt lat="49.8937890865" lon="8.2308544032"><ele>224.61</ele><time>2012-10-21T11:22:57Z</time></trkpt><trkpt lat="49.8935496993" lon="8.2306181174"><ele>223.16</ele><time>2012-10-21T11:23:17Z</time></trkpt><trkpt lat="49.8933300097" lon="8.2304499764"><ele>221.72</ele><time>2012-10-21T11:23:34Z</time></trkpt><trkpt lat="49.8931256589" lon="8.2302781474"><ele>220.76</ele><time>2012-10-21T11:23:52Z</time></trkpt><trkpt lat="49.8930195440" lon="8.2301782351"><ele>219.80</ele><time>2012-10-21T11:24:03Z</time></trkpt><trkpt lat="49.8928202223" lon="8.2300667558"><ele>218.36</ele><time>2012-10-21T11:24:19Z</time></trkpt><trkpt lat="49.8925861157" lon="8.2299873792"><ele>216.43</ele><time>2012-10-21T11:24:34Z</time></trkpt><trkpt lat="49.8924492393" lon="8.2297655940"><ele>216.43</ele><time>2012-10-21T11:24:49Z</time></trkpt><trkpt lat="49.8923633248" lon="8.2294638455"><ele>216.43</ele><time>2012-10-21T11:25:06Z</time></trkpt><trkpt lat="49.8923570383" lon="8.2294127997"><ele>216.43</ele><time>2012-10-21T11:25:25Z</time></trkpt><trkpt lat="49.8923169728" lon="8.2292950340"><ele>216.91</ele><time>2012-10-21T11:25:46Z</time></trkpt><trkpt lat="49.8922324833" lon="8.2290271483"><ele>216.91</ele><time>2012-10-21T11:25:58Z</time></trkpt><trkpt lat="49.8921570461" lon="8.2287534792"><ele>217.40</ele><time>2012-10-21T11:26:13Z</time></trkpt><trkpt lat="49.8921273742" lon="8.2286044490"><ele>217.40</ele><time>2012-10-21T11:26:24Z</time></trkpt><trkpt lat="49.8920987919" lon="8.2285098173"><ele>216.91</ele><time>2012-10-21T11:26:28Z</time></trkpt><trkpt lat="49.8920645099" lon="8.2283716835"><ele>217.40</ele><time>2012-10-21T11:26:33Z</time></trkpt><trkpt lat="49.8919442296" lon="8.2279937435"><ele>218.36</ele><time>2012-10-21T11:26:51Z</time></trkpt><trkpt lat="49.8919389490" lon="8.2279742975"><ele>218.36</ele><time>2012-10-21T11:26:52Z</time></trkpt><trkpt lat="49.8918558843" lon="8.2277125306"><ele>218.36</ele><time>2012-10-21T11:27:07Z</time></trkpt><trkpt lat="49.8918075208" lon="8.2274798490"><ele>219.32</ele><time>2012-10-21T11:27:20Z</time></trkpt><trkpt lat="49.8916960414" lon="8.2270567305"><ele>219.80</ele><time>2012-10-21T11:27:39Z</time></trkpt><trkpt lat="49.8916905932" lon="8.2270306628"><ele>220.28</ele><time>2012-10-21T11:27:40Z</time></trkpt><trkpt lat="49.8916460015" lon="8.2268690597"><ele>220.76</ele><time>2012-10-21T11:27:48Z</time></trkpt><trkpt lat="49.8916080315" lon="8.2265817281"><ele>221.24</ele><time>2012-10-21T11:28:03Z</time></trkpt><trkpt lat="49.8915258050" lon="8.2261500601"><ele>222.20</ele><time>2012-10-21T11:28:22Z</time></trkpt><trkpt lat="49.8914551456" lon="8.2257661689"><ele>223.16</ele><time>2012-10-21T11:28:40Z</time></trkpt><trkpt lat="49.8913719133" lon="8.2254297193"><ele>224.12</ele><time>2012-10-21T11:28:57Z</time></trkpt><trkpt lat="49.8913394753" lon="8.2251849677"><ele>225.09</ele><time>2012-10-21T11:29:13Z</time></trkpt><trkpt lat="49.8913383856" lon="8.2251170743"><ele>225.57</ele><time>2012-10-21T11:29:30Z</time></trkpt><trkpt lat="49.8913482763" lon="8.2251171581"><ele>225.09</ele><time>2012-10-21T11:29:57Z</time></trkpt><trkpt lat="49.8913576640" lon="8.2251141407"><ele>225.57</ele><time>2012-10-21T11:30:17Z</time></trkpt><trkpt lat="49.8912913632" lon="8.2250781823"><ele>225.09</ele><time>2012-10-21T11:30:30Z</time></trkpt><trkpt lat="49.8910565861" lon="8.2248948701"><ele>224.12</ele><time>2012-10-21T11:30:49Z</time></trkpt><trkpt lat="49.8909478728" lon="8.2247857377"><ele>223.64</ele><time>2012-10-21T11:30:58Z</time></trkpt><trkpt lat="49.8908661492" lon="8.2247413974"><ele>223.16</ele><time>2012-10-21T11:31:02Z</time></trkpt><trkpt lat="49.8906250857" lon="8.2245823927"><ele>222.68</ele><time>2012-10-21T11:31:19Z</time></trkpt><trkpt lat="49.8904332239" lon="8.2244416606"><ele>222.20</ele><time>2012-10-21T11:31:36Z</time></trkpt><trkpt lat="49.8902721237" lon="8.2243171055"><ele>222.20</ele><time>2012-10-21T11:31:51Z</time></trkpt><trkpt lat="49.8900692817" lon="8.2242390700"><ele>221.24</ele><time>2012-10-21T11:32:05Z</time></trkpt><trkpt lat="49.8899530247" lon="8.2241994236"><ele>221.24</ele><time>2012-10-21T11:32:13Z</time></trkpt><trkpt lat="49.8897755798" lon="8.2242131699"><ele>221.72</ele><time>2012-10-21T11:32:28Z</time></trkpt><trkpt lat="49.8896386195" lon="8.2242762856"><ele>221.72</ele><time>2012-10-21T11:32:39Z</time></trkpt><trkpt lat="49.8894941155" lon="8.2242942229"><ele>222.68</ele><time>2012-10-21T11:32:57Z</time></trkpt><trkpt lat="49.8894917686" lon="8.2242714241"><ele>222.68</ele><time>2012-10-21T11:33:16Z</time></trkpt><trkpt lat="49.8894524574" lon="8.2242512237"><ele>222.68</ele><time>2012-10-21T11:33:29Z</time></trkpt><trkpt lat="49.8891763575" lon="8.2243233081"><ele>224.12</ele><time>2012-10-21T11:33:47Z</time></trkpt><trkpt lat="49.8890125751" lon="8.2243725937"><ele>225.09</ele><time>2012-10-21T11:33:58Z</time></trkpt><trkpt lat="49.8887378164" lon="8.2244820613"><ele>226.05</ele><time>2012-10-21T11:34:18Z</time></trkpt><trkpt lat="49.8884854373" lon="8.2244736794"><ele>225.57</ele><time>2012-10-21T11:34:36Z</time></trkpt><trkpt lat="49.8883709405" lon="8.2244496234"><ele>225.09</ele><time>2012-10-21T11:34:42Z</time></trkpt><trkpt lat="49.8882856127" lon="8.2244430855"><ele>224.61</ele><time>2012-10-21T11:34:47Z</time></trkpt><trkpt lat="49.8881877121" lon="8.2244687341"><ele>224.61</ele><time>2012-10-21T11:34:53Z</time></trkpt><trkpt lat="49.8880370893" lon="8.2246677205"><ele>225.09</ele><time>2012-10-21T11:35:08Z</time></trkpt><trkpt lat="49.8880069982" lon="8.2246644516"><ele>224.12</ele><time>2012-10-21T11:35:10Z</time></trkpt><trkpt lat="49.8879904021" lon="8.2247228734"><ele>223.16</ele><time>2012-10-21T11:35:24Z</time></trkpt><trkpt lat="49.8879716266" lon="8.2248123083"><ele>222.68</ele><time>2012-10-21T11:35:31Z</time></trkpt><trkpt lat="49.8879422061" lon="8.2249553036"><ele>222.68</ele><time>2012-10-21T11:35:40Z</time></trkpt><trkpt lat="49.8880323954" lon="8.2253252808"><ele>220.76</ele><time>2012-10-21T11:35:58Z</time></trkpt><trkpt lat="49.8880588822" lon="8.2255370077"><ele>219.80</ele><time>2012-10-21T11:36:17Z</time></trkpt><trkpt lat="49.8880859558" lon="8.2256422006"><ele>219.32</ele><time>2012-10-21T11:36:36Z</time></trkpt><trkpt lat="49.8881654162" lon="8.2259544265"><ele>217.40</ele><time>2012-10-21T11:36:54Z</time></trkpt><trkpt lat="49.8881744687" lon="8.2263264991"><ele>216.91</ele><time>2012-10-21T11:37:11Z</time></trkpt><trkpt lat="49.8881945014" lon="8.2263136748"><ele>216.43</ele><time>2012-10-21T11:37:29Z</time></trkpt><trkpt lat="49.8883204814" lon="8.2263024431"><ele>215.47</ele><time>2012-10-21T11:37:44Z</time></trkpt><trkpt lat="49.8883643188" lon="8.2262997609"><ele>214.99</ele><time>2012-10-21T11:37:49Z</time></trkpt><trkpt lat="49.8883525841" lon="8.2262617070"><ele>214.99</ele><time>2012-10-21T11:37:53Z</time></trkpt><trkpt lat="49.8884386662" lon="8.2262291852"><ele>214.99</ele><time>2012-10-21T11:38:01Z</time></trkpt><trkpt lat="49.8886938952" lon="8.2260883693"><ele>214.51</ele><time>2012-10-21T11:38:23Z</time></trkpt><trkpt lat="49.8886787239" lon="8.2260556798"><ele>213.55</ele><time>2012-10-21T11:38:42Z</time></trkpt><trkpt lat="49.8886840884" lon="8.2260813285"><ele>214.51</ele><time>2012-10-21T11:39:08Z</time></trkpt><trkpt lat="49.8886604514" lon="8.2260737009"><ele>214.99</ele><time>2012-10-21T11:39:22Z</time></trkpt><trkpt lat="49.8886436876" lon="8.2261027023"><ele>214.03</ele><time>2012-10-21T11:39:42Z</time></trkpt><trkpt lat="49.8886405863" lon="8.2260933984"><ele>214.51</ele><time>2012-10-21T11:39:58Z</time></trkpt><trkpt lat="49.8884586990" lon="8.2261947356"><ele>214.99</ele><time>2012-10-21T11:40:15Z</time></trkpt><trkpt lat="49.8884357326" lon="8.2261964958"><ele>214.99</ele><time>2012-10-21T11:40:17Z</time></trkpt><trkpt lat="49.8883027956" lon="8.2262579352"><ele>215.95</ele><time>2012-10-21T11:40:28Z</time></trkpt><trkpt lat="49.8881938308" lon="8.2263443526"><ele>216.91</ele><time>2012-10-21T11:40:36Z</time></trkpt><trkpt lat="49.8881340679" lon="8.2264372241"><ele>213.07</ele><time>2012-10-21T11:40:43Z</time></trkpt><trkpt lat="49.8881267756" lon="8.2264485396"><ele>219.32</ele><time>2012-10-21T11:40:44Z</time></trkpt><trkpt lat="49.8881185614" lon="8.2264608610"><ele>215.95</ele><time>2012-10-21T11:40:45Z</time></trkpt><trkpt lat="49.8881111853" lon="8.2264707517"><ele>220.28</ele><time>2012-10-21T11:40:46Z</time></trkpt><trkpt lat="49.8880891409" lon="8.2264907844"><ele>217.40</ele><time>2012-10-21T11:40:48Z</time></trkpt><trkpt lat="49.8879811820" lon="8.2265579235"><ele>217.88</ele><time>2012-10-21T11:41:03Z</time></trkpt><trkpt lat="49.8879807629" lon="8.2265419140"><ele>217.88</ele><time>2012-10-21T11:41:17Z</time></trkpt><trkpt lat="49.8879752308" lon="8.2265430875"><ele>216.91</ele><time>2012-10-21T11:41:37Z</time></trkpt><trkpt lat="49.8879748955" lon="8.2265432552"><ele>220.76</ele><time>2012-10-21T11:41:39Z</time></trkpt><trkpt lat="49.8879745603" lon="8.2265430875"><ele>218.84</ele><time>2012-10-21T11:41:40Z</time></trkpt><trkpt lat="49.8879059963" lon="8.2264652196"><ele>215.47</ele><time>2012-10-21T11:41:52Z</time></trkpt><trkpt lat="49.8879058287" lon="8.2264650520"><ele>220.28</ele><time>2012-10-21T11:41:53Z</time></trkpt><trkpt lat="49.8879067507" lon="8.2264663093"><ele>216.43</ele><time>2012-10-21T11:41:55Z</time></trkpt><trkpt lat="49.8879068345" lon="8.2264668122"><ele>221.24</ele><time>2012-10-21T11:41:56Z</time></trkpt><trkpt lat="49.8879071698" lon="8.2264675666"><ele>218.36</ele><time>2012-10-21T11:41:58Z</time></trkpt><trkpt lat="49.8879039008" lon="8.2264731824"><ele>218.36</ele><time>2012-10-21T11:42:10Z</time></trkpt><trkpt lat="49.8878795095" lon="8.2264516409"><ele>218.36</ele><time>2012-10-21T11:42:24Z</time></trkpt><trkpt lat="49.8878248595" lon="8.2263423409"><ele>219.32</ele><time>2012-10-21T11:42:33Z</time></trkpt><trkpt lat="49.8878063355" lon="8.2263207994"><ele>219.80</ele><time>2012-10-21T11:42:35Z</time></trkpt><trkpt lat="49.8877665214" lon="8.2262804825"><ele>220.28</ele><time>2012-10-21T11:42:40Z</time></trkpt><trkpt lat="49.8877256177" lon="8.2262445241"><ele>220.28</ele><time>2012-10-21T11:42:43Z</time></trkpt><trkpt lat="49.8875884060" lon="8.2260348927"><ele>221.24</ele><time>2012-10-21T11:42:56Z</time></trkpt><trkpt lat="49.8875394557" lon="8.2258546818"><ele>220.76</ele><time>2012-10-21T11:43:11Z</time></trkpt><trkpt lat="49.8875318281" lon="8.2258361578"><ele>220.76</ele><time>2012-10-21T11:43:17Z</time></trkpt><trkpt lat="49.8874929361" lon="8.2257871237"><ele>219.32</ele><time>2012-10-21T11:43:31Z</time></trkpt><trkpt lat="49.8874926846" lon="8.2257871237"><ele>221.72</ele><time>2012-10-21T11:43:32Z</time></trkpt><trkpt lat="49.8874095362" lon="8.2258080784"><ele>222.68</ele><time>2012-10-21T11:43:44Z</time></trkpt><trkpt lat="49.8872509506" lon="8.2258789055"><ele>224.12</ele><time>2012-10-21T11:43:57Z</time></trkpt><trkpt lat="49.8871399742" lon="8.2259022910"><ele>225.09</ele><time>2012-10-21T11:44:06Z</time></trkpt><trkpt lat="49.8870807141" lon="8.2258820068"><ele>225.57</ele><time>2012-10-21T11:44:11Z</time></trkpt><trkpt lat="49.8870441690" lon="8.2258941606"><ele>225.57</ele><time>2012-10-21T11:44:14Z</time></trkpt><trkpt lat="49.8869638704" lon="8.2258536760"><ele>226.05</ele><time>2012-10-21T11:44:28Z</time></trkpt><trkpt lat="49.8869606853" lon="8.2258618064"><ele>221.72</ele><time>2012-10-21T11:44:40Z</time></trkpt><trkpt lat="49.8869606853" lon="8.2258613035"><ele>228.93</ele><time>2012-10-21T11:44:41Z</time></trkpt><trkpt lat="49.8869611043" lon="8.2258609682"><ele>226.05</ele><time>2012-10-21T11:44:43Z</time></trkpt><trkpt lat="49.8869614396" lon="8.2258608006"><ele>226.53</ele><time>2012-10-21T11:44:44Z</time></trkpt><trkpt lat="49.8869626969" lon="8.2258703560"><ele>222.68</ele><time>2012-10-21T11:44:55Z</time></trkpt><trkpt lat="49.8869626131" lon="8.2258705236"><ele>229.41</ele><time>2012-10-21T11:44:56Z</time></trkpt><trkpt lat="49.8869622778" lon="8.2258703560"><ele>226.53</ele><time>2012-10-21T11:44:57Z</time></trkpt><trkpt lat="49.8869571649" lon="8.2258828450"><ele>225.57</ele><time>2012-10-21T11:45:00Z</time></trkpt><trkpt lat="49.8869389761" lon="8.2259285264"><ele>226.05</ele><time>2012-10-21T11:45:03Z</time></trkpt><trkpt lat="49.8868959770" lon="8.2262610365"><ele>222.68</ele><time>2012-10-21T11:45:20Z</time></trkpt><trkpt lat="49.8868946359" lon="8.2262862660"><ele>228.45</ele><time>2012-10-21T11:45:21Z</time></trkpt><trkpt lat="49.8868850805" lon="8.2263307739"><ele>228.93</ele><time>2012-10-21T11:45:23Z</time></trkpt><trkpt lat="49.8868685681" lon="8.2263862621"><ele>225.09</ele><time>2012-10-21T11:45:26Z</time></trkpt><trkpt lat="49.8868629523" lon="8.2264429238"><ele>228.93</ele><time>2012-10-21T11:45:29Z</time></trkpt><trkpt lat="49.8868593480" lon="8.2265036926"><ele>225.09</ele><time>2012-10-21T11:45:32Z</time></trkpt><trkpt lat="49.8868358787" lon="8.2266628649"><ele>225.09</ele><time>2012-10-21T11:45:40Z</time></trkpt><trkpt lat="49.8867951427" lon="8.2269025873"><ele>226.05</ele><time>2012-10-21T11:45:55Z</time></trkpt><trkpt lat="49.8868001718" lon="8.2269048505"><ele>226.05</ele><time>2012-10-21T11:46:16Z</time></trkpt><trkpt lat="49.8868000042" lon="8.2269029226"><ele>226.05</ele><time>2012-10-21T11:46:18Z</time></trkpt><trkpt lat="49.8867907003" lon="8.2269056048"><ele>226.05</ele><time>2012-10-21T11:46:20Z</time></trkpt><trkpt lat="49.8867058754" lon="8.2268994860"><ele>226.53</ele><time>2012-10-21T11:46:36Z</time></trkpt><trkpt lat="49.8866542429" lon="8.2269295771"><ele>226.53</ele><time>2012-10-21T11:46:51Z</time></trkpt><trkpt lat="49.8864631355" lon="8.2268822193"><ele>227.49</ele><time>2012-10-21T11:47:06Z</time></trkpt><trkpt lat="49.8862512410" lon="8.2269019168"><ele>228.45</ele><time>2012-10-21T11:47:22Z</time></trkpt><trkpt lat="49.8860368319" lon="8.2269364502"><ele>228.93</ele><time>2012-10-21T11:47:37Z</time></trkpt><trkpt lat="49.8860264383" lon="8.2269392163"><ele>229.41</ele><time>2012-10-21T11:47:38Z</time></trkpt><trkpt lat="49.8858340736" lon="8.2273388654"><ele>229.41</ele><time>2012-10-21T11:47:55Z</time></trkpt><trkpt lat="49.8856893182" lon="8.2275838684"><ele>229.41</ele><time>2012-10-21T11:48:09Z</time></trkpt><trkpt lat="49.8856379371" lon="8.2276375964"><ele>229.89</ele><time>2012-10-21T11:48:14Z</time></trkpt><trkpt lat="49.8853706382" lon="8.2277957629"><ele>229.89</ele><time>2012-10-21T11:48:35Z</time></trkpt><trkpt lat="49.8851601686" lon="8.2279294543"><ele>229.89</ele><time>2012-10-21T11:48:53Z</time></trkpt><trkpt lat="49.8850305006" lon="8.2279723696"><ele>229.89</ele><time>2012-10-21T11:49:06Z</time></trkpt><trkpt lat="49.8847073782" lon="8.2281847671"><ele>229.89</ele><time>2012-10-21T11:49:26Z</time></trkpt><trkpt lat="49.8845219705" lon="8.2282630540"><ele>230.37</ele><time>2012-10-21T11:49:43Z</time></trkpt><trkpt lat="49.8845005129" lon="8.2282799017"><ele>230.37</ele><time>2012-10-21T11:49:45Z</time></trkpt><trkpt lat="49.8842986766" lon="8.2283576857"><ele>230.37</ele><time>2012-10-21T11:50:02Z</time></trkpt><trkpt lat="49.8840977624" lon="8.2284196280"><ele>230.37</ele><time>2012-10-21T11:50:17Z</time></trkpt><trkpt lat="49.8840500694" lon="8.2284273393"><ele>230.37</ele><time>2012-10-21T11:50:19Z</time></trkpt><trkpt lat="49.8838805035" lon="8.2284817379"><ele>230.37</ele><time>2012-10-21T11:50:29Z</time></trkpt><trkpt lat="49.8835938424" lon="8.2287003379"><ele>228.93</ele><time>2012-10-21T11:50:48Z</time></trkpt><trkpt lat="49.8833325785" lon="8.2288743462"><ele>227.49</ele><time>2012-10-21T11:51:07Z</time></trkpt><trkpt lat="49.8831708916" lon="8.2289716601"><ele>226.53</ele><time>2012-10-21T11:51:21Z</time></trkpt><trkpt lat="49.8831548821" lon="8.2289879210"><ele>226.53</ele><time>2012-10-21T11:51:23Z</time></trkpt><trkpt lat="49.8828621861" lon="8.2291470934"><ele>224.61</ele><time>2012-10-21T11:51:44Z</time></trkpt><trkpt lat="49.8826253973" lon="8.2292553037"><ele>223.64</ele><time>2012-10-21T11:52:04Z</time></trkpt><trkpt lat="49.8823601939" lon="8.2294245344"><ele>222.20</ele><time>2012-10-21T11:52:25Z</time></trkpt><trkpt lat="49.8822176177" lon="8.2295190822"><ele>222.20</ele><time>2012-10-21T11:52:40Z</time></trkpt><trkpt lat="49.8820711020" lon="8.2296235207"><ele>221.24</ele><time>2012-10-21T11:52:57Z</time></trkpt><trkpt lat="49.8819866963" lon="8.2296684477"><ele>221.72</ele><time>2012-10-21T11:53:13Z</time></trkpt><trkpt lat="49.8819882050" lon="8.2297628280"><ele>221.72</ele><time>2012-10-21T11:53:33Z</time></trkpt><trkpt lat="49.8819952458" lon="8.2297704555"><ele>221.24</ele><time>2012-10-21T11:53:49Z</time></trkpt><trkpt lat="49.8819918931" lon="8.2297672704"><ele>218.36</ele><time>2012-10-21T11:53:57Z</time></trkpt><trkpt lat="49.8819923121" lon="8.2297682762"><ele>224.61</ele><time>2012-10-21T11:53:58Z</time></trkpt><trkpt lat="49.8819927312" lon="8.2297690306"><ele>218.84</ele><time>2012-10-21T11:54:00Z</time></trkpt><trkpt lat="49.8819923121" lon="8.2297690306"><ele>224.12</ele><time>2012-10-21T11:54:01Z</time></trkpt><trkpt lat="49.8819909710" lon="8.2297710422"><ele>218.84</ele><time>2012-10-21T11:54:04Z</time></trkpt><trkpt lat="49.8819903843" lon="8.2297707908"><ele>223.64</ele><time>2012-10-21T11:54:05Z</time></trkpt><trkpt lat="49.8819901329" lon="8.2297707070"><ele>218.84</ele><time>2012-10-21T11:54:07Z</time></trkpt><trkpt lat="49.8819916416" lon="8.2297710422"><ele>219.80</ele><time>2012-10-21T11:54:08Z</time></trkpt><trkpt lat="49.8819929827" lon="8.2297697011"><ele>222.68</ele><time>2012-10-21T11:54:10Z</time></trkpt><trkpt lat="49.8819939885" lon="8.2297697011"><ele>223.16</ele><time>2012-10-21T11:54:11Z</time></trkpt><trkpt lat="49.8819931503" lon="8.2297691982"><ele>219.80</ele><time>2012-10-21T11:54:14Z</time></trkpt><trkpt lat="49.8819927312" lon="8.2297692820"><ele>220.28</ele><time>2012-10-21T11:54:15Z</time></trkpt><trkpt lat="49.8819922283" lon="8.2297690306"><ele>223.64</ele><time>2012-10-21T11:54:16Z</time></trkpt><trkpt lat="49.8819913063" lon="8.2297681924"><ele>218.36</ele><time>2012-10-21T11:54:17Z</time></trkpt><trkpt lat="49.8819910549" lon="8.2297681924"><ele>224.61</ele><time>2012-10-21T11:54:18Z</time></trkpt><trkpt lat="49.8819911387" lon="8.2297689468"><ele>220.76</ele><time>2012-10-21T11:54:19Z</time></trkpt><trkpt lat="49.8819882050" lon="8.2297785021"><ele>223.64</ele><time>2012-10-21T11:54:38Z</time></trkpt><trkpt lat="49.8819882888" lon="8.2297787536"><ele>221.72</ele><time>2012-10-21T11:54:39Z</time></trkpt><trkpt lat="49.8818828445" lon="8.2299648318"><ele>220.76</ele><time>2012-10-21T11:54:52Z</time></trkpt><trkpt lat="49.8818022106" lon="8.2299726270"><ele>220.28</ele><time>2012-10-21T11:55:07Z</time></trkpt><trkpt lat="49.8818116821" lon="8.2299689390"><ele>220.76</ele><time>2012-10-21T11:55:37Z</time></trkpt><trkpt lat="49.8818225786" lon="8.2299548574"><ele>221.24</ele><time>2012-10-21T11:55:54Z</time></trkpt><trkpt lat="49.8818163760" lon="8.2299490739"><ele>220.28</ele><time>2012-10-21T11:56:15Z</time></trkpt><trkpt lat="49.8818159569" lon="8.2299497444"><ele>220.28</ele><time>2012-10-21T11:56:41Z</time></trkpt><trkpt lat="49.8818146158" lon="8.2299451344"><ele>220.76</ele><time>2012-10-21T11:57:02Z</time></trkpt><trkpt lat="49.8818157054" lon="8.2299487386"><ele>220.28</ele><time>2012-10-21T11:57:20Z</time></trkpt><trkpt lat="49.8818151187" lon="8.2299487386"><ele>220.76</ele><time>2012-10-21T11:57:49Z</time></trkpt><trkpt lat="49.8818151187" lon="8.2299516723"><ele>220.76</ele><time>2012-10-21T11:58:22Z</time></trkpt><trkpt lat="49.8818163760" lon="8.2299555279"><ele>220.28</ele><time>2012-10-21T11:58:57Z</time></trkpt><trkpt lat="49.8818160407" lon="8.2299537677"><ele>220.76</ele><time>2012-10-21T11:59:25Z</time></trkpt><trkpt lat="49.8818169627" lon="8.2299558632"><ele>220.76</ele><time>2012-10-21T11:59:59Z</time></trkpt><trkpt lat="49.8818165436" lon="8.2299557794"><ele>220.76</ele><time>2012-10-21T12:00:31Z</time></trkpt><trkpt lat="49.8818177171" lon="8.2299515046"><ele>220.76</ele><time>2012-10-21T12:01:08Z</time></trkpt><trkpt lat="49.8818203993" lon="8.2299495768"><ele>220.76</ele><time>2012-10-21T12:01:42Z</time></trkpt><trkpt lat="49.8818209860" lon="8.2299484033"><ele>220.76</ele><time>2012-10-21T12:02:16Z</time></trkpt><trkpt lat="49.8818266019" lon="8.2299406920"><ele>221.24</ele><time>2012-10-21T12:02:37Z</time></trkpt><trkpt lat="49.8818215728" lon="8.2299415302"><ele>221.24</ele><time>2012-10-21T12:03:13Z</time></trkpt><trkpt lat="49.8818214890" lon="8.2299447991"><ele>221.24</ele><time>2012-10-21T12:03:47Z</time></trkpt><trkpt lat="49.8818228301" lon="8.2299449667"><ele>221.24</ele><time>2012-10-21T12:04:16Z</time></trkpt><trkpt lat="49.8818373308" lon="8.2300134469"><ele>221.72</ele><time>2012-10-21T12:04:31Z</time></trkpt><trkpt lat="49.8818139452" lon="8.2301175501"><ele>221.72</ele><time>2012-10-21T12:04:38Z</time></trkpt><trkpt lat="49.8817447945" lon="8.2304305304"><ele>221.24</ele><time>2012-10-21T12:04:56Z</time></trkpt><trkpt lat="49.8816319741" lon="8.2308029383"><ele>222.20</ele><time>2012-10-21T12:05:15Z</time></trkpt><trkpt lat="49.8815408628" lon="8.2311135717"><ele>222.68</ele><time>2012-10-21T12:05:30Z</time></trkpt><trkpt lat="49.8814702872" lon="8.2314072736"><ele>223.64</ele><time>2012-10-21T12:05:43Z</time></trkpt><trkpt lat="49.8813821096" lon="8.2317402028"><ele>225.57</ele><time>2012-10-21T12:06:01Z</time></trkpt><trkpt lat="49.8812805209" lon="8.2320929132"><ele>227.97</ele><time>2012-10-21T12:06:19Z</time></trkpt><trkpt lat="49.8812040780" lon="8.2323950808"><ele>229.89</ele><time>2012-10-21T12:06:34Z</time></trkpt><trkpt lat="49.8811672814" lon="8.2327220589"><ele>232.78</ele><time>2012-10-21T12:06:52Z</time></trkpt><trkpt lat="49.8811743222" lon="8.2327440195"><ele>229.41</ele><time>2012-10-21T12:07:07Z</time></trkpt><trkpt lat="49.8811740708" lon="8.2327441871"><ele>234.22</ele><time>2012-10-21T12:07:08Z</time></trkpt><trkpt lat="49.8811764177" lon="8.2327453606"><ele>230.37</ele><time>2012-10-21T12:07:19Z</time></trkpt><trkpt lat="49.8811767530" lon="8.2327446900"><ele>234.22</ele><time>2012-10-21T12:07:20Z</time></trkpt><trkpt lat="49.8811913375" lon="8.2330007572"><ele>230.85</ele><time>2012-10-21T12:07:34Z</time></trkpt><trkpt lat="49.8811943550" lon="8.2330208737"><ele>234.70</ele><time>2012-10-21T12:07:35Z</time></trkpt><trkpt lat="49.8812029883" lon="8.2331493683"><ele>230.37</ele><time>2012-10-21T12:07:41Z</time></trkpt><trkpt lat="49.8812048323" lon="8.2331720833"><ele>234.70</ele><time>2012-10-21T12:07:42Z</time></trkpt><trkpt lat="49.8812061734" lon="8.2331939600"><ele>234.70</ele><time>2012-10-21T12:07:43Z</time></trkpt><trkpt lat="49.8812065087" lon="8.2332157530"><ele>230.37</ele><time>2012-10-21T12:07:44Z</time></trkpt><trkpt lat="49.8812082689" lon="8.2332354505"><ele>238.06</ele><time>2012-10-21T12:07:45Z</time></trkpt><trkpt lat="49.8812101129" lon="8.2332537230"><ele>232.78</ele><time>2012-10-21T12:07:46Z</time></trkpt><trkpt lat="49.8812267091" lon="8.2335740793"><ele>235.66</ele><time>2012-10-21T12:08:01Z</time></trkpt><trkpt lat="49.8812269606" lon="8.2335950341"><ele>230.85</ele><time>2012-10-21T12:08:02Z</time></trkpt><trkpt lat="49.8812282179" lon="8.2336171623"><ele>236.14</ele><time>2012-10-21T12:08:03Z</time></trkpt><trkpt lat="49.8812283017" lon="8.2337902486"><ele>232.78</ele><time>2012-10-21T12:08:11Z</time></trkpt><trkpt lat="49.8812337499" lon="8.2338603213"><ele>236.62</ele><time>2012-10-21T12:08:15Z</time></trkpt><trkpt lat="49.8812444787" lon="8.2342738006"><ele>234.70</ele><time>2012-10-21T12:08:33Z</time></trkpt><trkpt lat="49.8812638409" lon="8.2346700970"><ele>233.74</ele><time>2012-10-21T12:08:51Z</time></trkpt><trkpt lat="49.8813980352" lon="8.2351144217"><ele>232.78</ele><time>2012-10-21T12:09:13Z</time></trkpt><trkpt lat="49.8815225903" lon="8.2355731633"><ele>231.81</ele><time>2012-10-21T12:09:36Z</time></trkpt><trkpt lat="49.8816320579" lon="8.2359169889"><ele>230.85</ele><time>2012-10-21T12:09:53Z</time></trkpt><trkpt lat="49.8817268573" lon="8.2362782490"><ele>230.37</ele><time>2012-10-21T12:10:11Z</time></trkpt><trkpt lat="49.8818603810" lon="8.2365890499"><ele>229.89</ele><time>2012-10-21T12:10:28Z</time></trkpt><trkpt lat="49.8820498958" lon="8.2369395811"><ele>228.93</ele><time>2012-10-21T12:10:49Z</time></trkpt><trkpt lat="49.8821920529" lon="8.2372470293"><ele>228.93</ele><time>2012-10-21T12:11:05Z</time></trkpt><trkpt lat="49.8821867723" lon="8.2373411581"><ele>227.97</ele><time>2012-10-21T12:11:18Z</time></trkpt><trkpt lat="49.8822099064" lon="8.2373368833"><ele>228.45</ele><time>2012-10-21T12:11:27Z</time></trkpt><trkpt lat="49.8822550010" lon="8.2373724226"><ele>228.45</ele><time>2012-10-21T12:11:31Z</time></trkpt><trkpt lat="49.8822990898" lon="8.2374554873"><ele>228.93</ele><time>2012-10-21T12:11:45Z</time></trkpt><trkpt lat="49.8822958209" lon="8.2374837343"><ele>228.45</ele><time>2012-10-21T12:12:14Z</time></trkpt><trkpt lat="49.8823758680" lon="8.2376680523"><ele>229.41</ele><time>2012-10-21T12:12:29Z</time></trkpt><trkpt lat="49.8824479524" lon="8.2378919329"><ele>229.89</ele><time>2012-10-21T12:12:45Z</time></trkpt><trkpt lat="49.8824699130" lon="8.2379720639"><ele>229.89</ele><time>2012-10-21T12:13:00Z</time></trkpt><trkpt lat="49.8824667279" lon="8.2379759196"><ele>229.89</ele><time>2012-10-21T12:13:25Z</time></trkpt><trkpt lat="49.8824664764" lon="8.2379784342"><ele>229.89</ele><time>2012-10-21T12:13:39Z</time></trkpt><trkpt lat="49.8824663088" lon="8.2379757520"><ele>229.89</ele><time>2012-10-21T12:13:57Z</time></trkpt><trkpt lat="49.8824732658" lon="8.2379711419"><ele>229.89</ele><time>2012-10-21T12:13:58Z</time></trkpt><trkpt lat="49.8824845813" lon="8.2379884087"><ele>229.89</ele><time>2012-10-21T12:14:10Z</time></trkpt><trkpt lat="49.8824897781" lon="8.2380278036"><ele>229.89</ele><time>2012-10-21T12:14:17Z</time></trkpt><trkpt lat="49.8825430032" lon="8.2382088527"><ele>229.89</ele><time>2012-10-21T12:14:36Z</time></trkpt><trkpt lat="49.8825456016" lon="8.2382287178"><ele>229.89</ele><time>2012-10-21T12:14:59Z</time></trkpt><trkpt lat="49.8825445119" lon="8.2382391114"><ele>229.89</ele><time>2012-10-21T12:15:17Z</time></trkpt><trkpt lat="49.8825457692" lon="8.2382453978"><ele>230.37</ele><time>2012-10-21T12:15:29Z</time></trkpt><trkpt lat="49.8825556599" lon="8.2383044902"><ele>229.41</ele><time>2012-10-21T12:15:32Z</time></trkpt><trkpt lat="49.8826248944" lon="8.2386421971"><ele>228.93</ele><time>2012-10-21T12:15:49Z</time></trkpt><trkpt lat="49.8827474378" lon="8.2390052173"><ele>227.97</ele><time>2012-10-21T12:16:08Z</time></trkpt><trkpt lat="49.8828565702" lon="8.2393023558"><ele>227.01</ele><time>2012-10-21T12:16:24Z</time></trkpt><trkpt lat="49.8829826340" lon="8.2396027632"><ele>226.53</ele><time>2012-10-21T12:16:40Z</time></trkpt><trkpt lat="49.8830259684" lon="8.2398854848"><ele>224.61</ele><time>2012-10-21T12:16:54Z</time></trkpt><trkpt lat="49.8830773495" lon="8.2402823679"><ele>223.64</ele><time>2012-10-21T12:17:12Z</time></trkpt><trkpt lat="49.8831207678" lon="8.2406085916"><ele>222.68</ele><time>2012-10-21T12:17:28Z</time></trkpt><trkpt lat="49.8831635155" lon="8.2409853581"><ele>221.24</ele><time>2012-10-21T12:17:45Z</time></trkpt><trkpt lat="49.8831740767" lon="8.2413104922"><ele>220.28</ele><time>2012-10-21T12:18:02Z</time></trkpt><trkpt lat="49.8831845541" lon="8.2414072193"><ele>219.80</ele><time>2012-10-21T12:18:07Z</time></trkpt><trkpt lat="49.8832104541" lon="8.2417404838"><ele>217.40</ele><time>2012-10-21T12:18:24Z</time></trkpt><trkpt lat="49.8832024075" lon="8.2418273203"><ele>217.40</ele><time>2012-10-21T12:18:31Z</time></trkpt><trkpt lat="49.8832018208" lon="8.2421377022"><ele>215.95</ele><time>2012-10-21T12:18:45Z</time></trkpt><trkpt lat="49.8832201771" lon="8.2425094396"><ele>215.47</ele><time>2012-10-21T12:19:03Z</time></trkpt><trkpt lat="49.8832155671" lon="8.2428638265"><ele>214.51</ele><time>2012-10-21T12:19:19Z</time></trkpt><trkpt lat="49.8832013179" lon="8.2430648245"><ele>214.51</ele><time>2012-10-21T12:19:29Z</time></trkpt><trkpt lat="49.8831849732" lon="8.2431453746"><ele>214.03</ele><time>2012-10-21T12:19:44Z</time></trkpt><trkpt lat="49.8831875715" lon="8.2431427762"><ele>215.47</ele><time>2012-10-21T12:20:09Z</time></trkpt><trkpt lat="49.8831879906" lon="8.2431400102"><ele>211.15</ele><time>2012-10-21T12:20:19Z</time></trkpt><trkpt lat="49.8831882421" lon="8.2431397587"><ele>216.43</ele><time>2012-10-21T12:20:20Z</time></trkpt><trkpt lat="49.8831883259" lon="8.2431395911"><ele>211.63</ele><time>2012-10-21T12:20:21Z</time></trkpt><trkpt lat="49.8831882421" lon="8.2431391720"><ele>215.95</ele><time>2012-10-21T12:20:22Z</time></trkpt><trkpt lat="49.8831864819" lon="8.2431347296"><ele>212.11</ele><time>2012-10-21T12:20:33Z</time></trkpt><trkpt lat="49.8831863143" lon="8.2431343105"><ele>215.95</ele><time>2012-10-21T12:20:34Z</time></trkpt><trkpt lat="49.8831858952" lon="8.2431337237"><ele>212.59</ele><time>2012-10-21T12:20:36Z</time></trkpt><trkpt lat="49.8831855599" lon="8.2431333885"><ele>213.55</ele><time>2012-10-21T12:20:37Z</time></trkpt><trkpt lat="49.8831853922" lon="8.2431337237"><ele>213.55</ele><time>2012-10-21T12:20:56Z</time></trkpt><trkpt lat="49.8831736576" lon="8.2431789860"><ele>213.55</ele><time>2012-10-21T12:21:13Z</time></trkpt><trkpt lat="49.8830569815" lon="8.2435116637"><ele>213.55</ele><time>2012-10-21T12:21:31Z</time></trkpt><trkpt lat="49.8829987273" lon="8.2436672319"><ele>213.07</ele><time>2012-10-21T12:21:39Z</time></trkpt><trkpt lat="49.8829013295" lon="8.2440032624"><ele>212.59</ele><time>2012-10-21T12:21:57Z</time></trkpt><trkpt lat="49.8828237969" lon="8.2443308271"><ele>212.11</ele><time>2012-10-21T12:22:13Z</time></trkpt><trkpt lat="49.8827535566" lon="8.2446733117"><ele>211.63</ele><time>2012-10-21T12:22:30Z</time></trkpt><trkpt lat="49.8827041034" lon="8.2450102642"><ele>211.15</ele><time>2012-10-21T12:22:45Z</time></trkpt><trkpt lat="49.8826224636" lon="8.2453932334"><ele>210.67</ele><time>2012-10-21T12:23:02Z</time></trkpt><trkpt lat="49.8825839069" lon="8.2457246538"><ele>210.19</ele><time>2012-10-21T12:23:19Z</time></trkpt><trkpt lat="49.8825823981" lon="8.2457984146"><ele>209.70</ele><time>2012-10-21T12:23:23Z</time></trkpt><trkpt lat="49.8825129960" lon="8.2460559066"><ele>209.22</ele><time>2012-10-21T12:23:38Z</time></trkpt><trkpt lat="49.8825110681" lon="8.2460760232"><ele>209.22</ele><time>2012-10-21T12:23:39Z</time></trkpt><trkpt lat="49.8824893590" lon="8.2461693138"><ele>209.70</ele><time>2012-10-21T12:23:44Z</time></trkpt><trkpt lat="49.8824344575" lon="8.2465006504"><ele>209.22</ele><time>2012-10-21T12:24:00Z</time></trkpt><trkpt lat="49.8823688272" lon="8.2467748225"><ele>209.70</ele><time>2012-10-21T12:24:14Z</time></trkpt><trkpt lat="49.8823251575" lon="8.2470636629"><ele>208.74</ele><time>2012-10-21T12:24:28Z</time></trkpt><trkpt lat="49.8822871875" lon="8.2473847736"><ele>208.26</ele><time>2012-10-21T12:24:44Z</time></trkpt><trkpt lat="49.8822584376" lon="8.2477165293"><ele>207.30</ele><time>2012-10-21T12:25:01Z</time></trkpt><trkpt lat="49.8822747823" lon="8.2480015978"><ele>206.34</ele><time>2012-10-21T12:25:17Z</time></trkpt><trkpt lat="49.8822777160" lon="8.2483969722"><ele>205.86</ele><time>2012-10-21T12:25:36Z</time></trkpt><trkpt lat="49.8822762072" lon="8.2487350143"><ele>204.90</ele><time>2012-10-21T12:25:52Z</time></trkpt><trkpt lat="49.8822783865" lon="8.2490717154"><ele>203.46</ele><time>2012-10-21T12:26:08Z</time></trkpt><trkpt lat="49.8822835833" lon="8.2494160440"><ele>202.98</ele><time>2012-10-21T12:26:25Z</time></trkpt><trkpt lat="49.8823132552" lon="8.2497559302"><ele>201.53</ele><time>2012-10-21T12:26:42Z</time></trkpt><trkpt lat="49.8823482078" lon="8.2500808965"><ele>200.57</ele><time>2012-10-21T12:26:58Z</time></trkpt><trkpt lat="49.8823689949" lon="8.2504567411"><ele>199.13</ele><time>2012-10-21T12:27:16Z</time></trkpt><trkpt lat="49.8824202921" lon="8.2508320827"><ele>197.69</ele><time>2012-10-21T12:27:34Z</time></trkpt><trkpt lat="49.8824713379" lon="8.2512243558"><ele>196.73</ele><time>2012-10-21T12:27:53Z</time></trkpt><trkpt lat="49.8825378902" lon="8.2516328059"><ele>195.28</ele><time>2012-10-21T12:28:14Z</time></trkpt><trkpt lat="49.8825984914" lon="8.2520062197"><ele>193.84</ele><time>2012-10-21T12:28:31Z</time></trkpt><trkpt lat="49.8826315999" lon="8.2521980815"><ele>192.88</ele><time>2012-10-21T12:28:45Z</time></trkpt><trkpt lat="49.8826316837" lon="8.2521957345"><ele>192.88</ele><time>2012-10-21T12:28:58Z</time></trkpt><trkpt lat="49.8826388922" lon="8.2522431761"><ele>192.88</ele><time>2012-10-21T12:29:20Z</time></trkpt><trkpt lat="49.8826541472" lon="8.2523329463"><ele>192.40</ele><time>2012-10-21T12:29:33Z</time></trkpt><trkpt lat="49.8826932907" lon="8.2523229718"><ele>192.40</ele><time>2012-10-21T12:29:36Z</time></trkpt><trkpt lat="49.8826760240" lon="8.2527470961"><ele>190.00</ele><time>2012-10-21T12:29:57Z</time></trkpt><trkpt lat="49.8826992419" lon="8.2530737389"><ele>189.04</ele><time>2012-10-21T12:30:14Z</time></trkpt><trkpt lat="49.8827067018" lon="8.2534545287"><ele>187.59</ele><time>2012-10-21T12:30:32Z</time></trkpt><trkpt lat="49.8827287462" lon="8.2537468895"><ele>186.63</ele><time>2012-10-21T12:30:48Z</time></trkpt><trkpt lat="49.8827306740" lon="8.2537605520"><ele>187.11</ele><time>2012-10-21T12:30:50Z</time></trkpt><trkpt lat="49.8827330209" lon="8.2537974324"><ele>186.15</ele><time>2012-10-21T12:30:52Z</time></trkpt><trkpt lat="49.8827956337" lon="8.2542126719"><ele>185.19</ele><time>2012-10-21T12:31:12Z</time></trkpt><trkpt lat="49.8828604259" lon="8.2546119858"><ele>183.75</ele><time>2012-10-21T12:31:31Z</time></trkpt><trkpt lat="49.8829124775" lon="8.2549941167"><ele>182.31</ele><time>2012-10-21T12:31:50Z</time></trkpt><trkpt lat="49.8829540517" lon="8.2553027384"><ele>180.38</ele><time>2012-10-21T12:32:05Z</time></trkpt><trkpt lat="49.8830084503" lon="8.2557629887"><ele>178.46</ele><time>2012-10-21T12:32:27Z</time></trkpt><trkpt lat="49.8830219451" lon="8.2561774738"><ele>177.02</ele><time>2012-10-21T12:32:45Z</time></trkpt><trkpt lat="49.8830603343" lon="8.2565598562"><ele>175.10</ele><time>2012-10-21T12:33:04Z</time></trkpt><trkpt lat="49.8830755055" lon="8.2566135842"><ele>175.10</ele><time>2012-10-21T12:33:18Z</time></trkpt><trkpt lat="49.8830864858" lon="8.2566314377"><ele>174.62</ele><time>2012-10-21T12:33:38Z</time></trkpt><trkpt lat="49.8830808699" lon="8.2566856686"><ele>174.14</ele><time>2012-10-21T12:33:56Z</time></trkpt><trkpt lat="49.8831240367" lon="8.2566889375"><ele>174.62</ele><time>2012-10-21T12:34:06Z</time></trkpt><trkpt lat="49.8831445724" lon="8.2567155920"><ele>174.14</ele><time>2012-10-21T12:34:16Z</time></trkpt><trkpt lat="49.8831285629" lon="8.2567207050"><ele>174.14</ele><time>2012-10-21T12:34:26Z</time></trkpt><trkpt lat="49.8831044231" lon="8.2567332778"><ele>173.66</ele><time>2012-10-21T12:34:32Z</time></trkpt><trkpt lat="49.8830946162" lon="8.2567876764"><ele>173.66</ele><time>2012-10-21T12:34:35Z</time></trkpt><trkpt lat="49.8830973823" lon="8.2571259700"><ele>172.21</ele><time>2012-10-21T12:34:50Z</time></trkpt><trkpt lat="49.8831037525" lon="8.2572424784"><ele>170.77</ele><time>2012-10-21T12:34:56Z</time></trkpt><trkpt lat="49.8830995616" lon="8.2576437201"><ele>170.77</ele><time>2012-10-21T12:35:14Z</time></trkpt><trkpt lat="49.8830713145" lon="8.2579344884"><ele>169.33</ele><time>2012-10-21T12:35:29Z</time></trkpt><trkpt lat="49.8830402177" lon="8.2582311239"><ele>167.89</ele><time>2012-10-21T12:35:44Z</time></trkpt><trkpt lat="49.8830120545" lon="8.2585364766"><ele>166.93</ele><time>2012-10-21T12:36:02Z</time></trkpt><trkpt lat="49.8829644453" lon="8.2589124888"><ele>166.45</ele><time>2012-10-21T12:36:18Z</time></trkpt><trkpt lat="49.8829363659" lon="8.2591071166"><ele>165.48</ele><time>2012-10-21T12:36:27Z</time></trkpt><trkpt lat="49.8829196021" lon="8.2592066098"><ele>165.00</ele><time>2012-10-21T12:36:31Z</time></trkpt><trkpt lat="49.8828441650" lon="8.2595949434"><ele>163.08</ele><time>2012-10-21T12:36:49Z</time></trkpt><trkpt lat="49.8827770259" lon="8.2600676827"><ele>161.64</ele><time>2012-10-21T12:37:11Z</time></trkpt><trkpt lat="49.8827546462" lon="8.2602214906"><ele>160.68</ele><time>2012-10-21T12:37:21Z</time></trkpt><trkpt lat="49.8826765269" lon="8.2606449444"><ele>159.24</ele><time>2012-10-21T12:37:37Z</time></trkpt><trkpt lat="49.8826207034" lon="8.2609451003"><ele>158.27</ele><time>2012-10-21T12:37:52Z</time></trkpt><trkpt lat="49.8826096393" lon="8.2612309232"><ele>157.79</ele><time>2012-10-21T12:38:09Z</time></trkpt><trkpt lat="49.8827908561" lon="8.2614831347"><ele>157.79</ele><time>2012-10-21T12:38:29Z</time></trkpt><trkpt lat="49.8829964641" lon="8.2617454883"><ele>155.39</ele><time>2012-10-21T12:38:48Z</time></trkpt><trkpt lat="49.8831730708" lon="8.2619580533"><ele>154.91</ele><time>2012-10-21T12:39:06Z</time></trkpt><trkpt lat="49.8831786867" lon="8.2620656770"><ele>153.95</ele><time>2012-10-21T12:39:13Z</time></trkpt><trkpt lat="49.8830712307" lon="8.2622163836"><ele>153.95</ele><time>2012-10-21T12:39:27Z</time></trkpt><trkpt lat="49.8830632679" lon="8.2622403558"><ele>154.43</ele><time>2012-10-21T12:39:47Z</time></trkpt><trkpt lat="49.8830601666" lon="8.2622685190"><ele>153.95</ele><time>2012-10-21T12:40:04Z</time></trkpt><trkpt lat="49.8830072768" lon="8.2623571157"><ele>153.47</ele><time>2012-10-21T12:40:21Z</time></trkpt><trkpt lat="49.8829984758" lon="8.2623680122"><ele>153.47</ele><time>2012-10-21T12:40:22Z</time></trkpt><trkpt lat="49.8827991541" lon="8.2626679167"><ele>152.99</ele><time>2012-10-21T12:40:40Z</time></trkpt><trkpt lat="49.8826805502" lon="8.2628941443"><ele>153.47</ele><time>2012-10-21T12:40:55Z</time></trkpt><trkpt lat="49.8826589249" lon="8.2629959844"><ele>153.47</ele><time>2012-10-21T12:41:01Z</time></trkpt><trkpt lat="49.8826547340" lon="8.2631372195"><ele>153.47</ele><time>2012-10-21T12:41:07Z</time></trkpt><trkpt lat="49.8827108927" lon="8.2636171672"><ele>152.99</ele><time>2012-10-21T12:41:27Z</time></trkpt><trkpt lat="49.8827320989" lon="8.2638624217"><ele>152.99</ele><time>2012-10-21T12:41:39Z</time></trkpt><trkpt lat="49.8827606812" lon="8.2642045710"><ele>152.51</ele><time>2012-10-21T12:41:56Z</time></trkpt><trkpt lat="49.8828051891" lon="8.2646298688"><ele>152.03</ele><time>2012-10-21T12:42:16Z</time></trkpt><trkpt lat="49.8828273173" lon="8.2649513986"><ele>151.54</ele><time>2012-10-21T12:42:32Z</time></trkpt><trkpt lat="49.8828437459" lon="8.2653131615"><ele>150.58</ele><time>2012-10-21T12:42:50Z</time></trkpt><trkpt lat="49.8828400578" lon="8.2655016705"><ele>150.10</ele><time>2012-10-21T12:43:06Z</time></trkpt><trkpt lat="49.8828074522" lon="8.2656631060"><ele>149.14</ele><time>2012-10-21T12:43:30Z</time></trkpt><trkpt lat="49.8828570731" lon="8.2658673730"><ele>148.66</ele><time>2012-10-21T12:43:40Z</time></trkpt><trkpt lat="49.8829247989" lon="8.2663014717"><ele>148.18</ele><time>2012-10-21T12:44:00Z</time></trkpt><trkpt lat="49.8829299118" lon="8.2664696127"><ele>148.18</ele><time>2012-10-21T12:44:15Z</time></trkpt><trkpt lat="49.8829843104" lon="8.2669260912"><ele>147.22</ele><time>2012-10-21T12:44:34Z</time></trkpt><trkpt lat="49.8830106296" lon="8.2672584336"><ele>146.74</ele><time>2012-10-21T12:44:52Z</time></trkpt><trkpt lat="49.8830522038" lon="8.2674855832"><ele>146.26</ele><time>2012-10-21T12:45:01Z</time></trkpt><trkpt lat="49.8830748349" lon="8.2678941172"><ele>145.78</ele><time>2012-10-21T12:45:20Z</time></trkpt><trkpt lat="49.8830625135" lon="8.2682032418"><ele>145.30</ele><time>2012-10-21T12:45:36Z</time></trkpt><trkpt lat="49.8830159940" lon="8.2687028032"><ele>143.85</ele><time>2012-10-21T12:45:56Z</time></trkpt><trkpt lat="49.8830115516" lon="8.2689020410"><ele>142.89</ele><time>2012-10-21T12:46:10Z</time></trkpt><trkpt lat="49.8829620983" lon="8.2692284323"><ele>142.41</ele><time>2012-10-21T12:46:27Z</time></trkpt><trkpt lat="49.8829559796" lon="8.2694263291"><ele>141.93</ele><time>2012-10-21T12:46:34Z</time></trkpt><trkpt lat="49.8829636909" lon="8.2697880082"><ele>140.49</ele><time>2012-10-21T12:46:52Z</time></trkpt><trkpt lat="49.8829319235" lon="8.2702000625"><ele>139.53</ele><time>2012-10-21T12:47:11Z</time></trkpt><trkpt lat="49.8829496093" lon="8.2705437206"><ele>138.57</ele><time>2012-10-21T12:47:29Z</time></trkpt><trkpt lat="49.8829606734" lon="8.2709090039"><ele>137.61</ele><time>2012-10-21T12:47:45Z</time></trkpt><trkpt lat="49.8829657026" lon="8.2712969184"><ele>136.16</ele><time>2012-10-21T12:48:04Z</time></trkpt><trkpt lat="49.8829548899" lon="8.2715985831"><ele>134.72</ele><time>2012-10-21T12:48:17Z</time></trkpt><trkpt lat="49.8829589132" lon="8.2717513014"><ele>134.72</ele><time>2012-10-21T12:48:22Z</time></trkpt><trkpt lat="49.8829306662" lon="8.2719231304"><ele>134.72</ele><time>2012-10-21T12:48:36Z</time></trkpt><trkpt lat="49.8828911036" lon="8.2721595000"><ele>133.76</ele><time>2012-10-21T12:48:49Z</time></trkpt><trkpt lat="49.8828842305" lon="8.2721842267"><ele>133.76</ele><time>2012-10-21T12:48:50Z</time></trkpt><trkpt lat="49.8828813806" lon="8.2722806185"><ele>133.76</ele><time>2012-10-21T12:48:55Z</time></trkpt><trkpt lat="49.8827794567" lon="8.2723055966"><ele>133.76</ele><time>2012-10-21T12:49:08Z</time></trkpt><trkpt lat="49.8827817198" lon="8.2723045070"><ele>133.28</ele><time>2012-10-21T12:49:20Z</time></trkpt><trkpt lat="49.8825996649" lon="8.2723206002"><ele>133.28</ele><time>2012-10-21T12:49:33Z</time></trkpt><trkpt lat="49.8825567495" lon="8.2723233663"><ele>133.76</ele><time>2012-10-21T12:49:36Z</time></trkpt><trkpt lat="49.8823378980" lon="8.2723323349"><ele>132.80</ele><time>2012-10-21T12:49:51Z</time></trkpt><trkpt lat="49.8823140934" lon="8.2723335922"><ele>133.76</ele><time>2012-10-21T12:49:53Z</time></trkpt><trkpt lat="49.8822715133" lon="8.2723689638"><ele>133.76</ele><time>2012-10-21T12:49:57Z</time></trkpt><trkpt lat="49.8820543382" lon="8.2723448239"><ele>133.76</ele><time>2012-10-21T12:50:13Z</time></trkpt><trkpt lat="49.8818278592" lon="8.2723592408"><ele>134.72</ele><time>2012-10-21T12:50:30Z</time></trkpt><trkpt lat="49.8817092553" lon="8.2724464964"><ele>135.20</ele><time>2012-10-21T12:50:40Z</time></trkpt><trkpt lat="49.8816687707" lon="8.2725823671"><ele>135.20</ele><time>2012-10-21T12:50:48Z</time></trkpt><trkpt lat="49.8816550244" lon="8.2728967723"><ele>135.68</ele><time>2012-10-21T12:51:03Z</time></trkpt><trkpt lat="49.8816540185" lon="8.2729271986"><ele>135.68</ele><time>2012-10-21T12:51:25Z</time></trkpt><trkpt lat="49.8816629034" lon="8.2731292862"><ele>136.16</ele><time>2012-10-21T12:51:41Z</time></trkpt><trkpt lat="49.8816707823" lon="8.2734846789"><ele>135.68</ele><time>2012-10-21T12:51:56Z</time></trkpt><trkpt lat="49.8816894740" lon="8.2738990802"><ele>135.68</ele><time>2012-10-21T12:52:13Z</time></trkpt><trkpt lat="49.8817333113" lon="8.2742271479"><ele>134.72</ele><time>2012-10-21T12:52:28Z</time></trkpt><trkpt lat="49.8817449622" lon="8.2744975481"><ele>134.24</ele><time>2012-10-21T12:52:46Z</time></trkpt><trkpt lat="49.8817529250" lon="8.2745946944"><ele>133.76</ele><time>2012-10-21T12:53:09Z</time></trkpt><trkpt lat="49.8818360735" lon="8.2749956008"><ele>133.28</ele><time>2012-10-21T12:53:27Z</time></trkpt><trkpt lat="49.8819152825" lon="8.2754150312"><ele>131.84</ele><time>2012-10-21T12:53:50Z</time></trkpt><trkpt lat="49.8819979280" lon="8.2759165205"><ele>130.88</ele><time>2012-10-21T12:54:14Z</time></trkpt><trkpt lat="49.8820526619" lon="8.2763989829"><ele>129.92</ele><time>2012-10-21T12:54:35Z</time></trkpt><trkpt lat="49.8821164481" lon="8.2767780125"><ele>128.95</ele><time>2012-10-21T12:54:53Z</time></trkpt><trkpt lat="49.8821605369" lon="8.2772356644"><ele>127.99</ele><time>2012-10-21T12:55:13Z</time></trkpt><trkpt lat="49.8821964115" lon="8.2776908856"><ele>127.03</ele><time>2012-10-21T12:55:33Z</time></trkpt><trkpt lat="49.8822553363" lon="8.2779446058"><ele>126.07</ele><time>2012-10-21T12:55:45Z</time></trkpt><trkpt lat="49.8823529854" lon="8.2784237992"><ele>125.11</ele><time>2012-10-21T12:56:09Z</time></trkpt><trkpt lat="49.8824879341" lon="8.2788630947"><ele>124.15</ele><time>2012-10-21T12:56:33Z</time></trkpt><trkpt lat="49.8825626168" lon="8.2793751452"><ele>123.19</ele><time>2012-10-21T12:56:54Z</time></trkpt><trkpt lat="49.8826500401" lon="8.2797277719"><ele>122.22</ele><time>2012-10-21T12:57:12Z</time></trkpt><trkpt lat="49.8827327695" lon="8.2801110763"><ele>121.74</ele><time>2012-10-21T12:57:31Z</time></trkpt><trkpt lat="49.8827619385" lon="8.2805807143"><ele>121.26</ele><time>2012-10-21T12:57:51Z</time></trkpt><trkpt lat="49.8827769421" lon="8.2808507793"><ele>120.78</ele><time>2012-10-21T12:58:04Z</time></trkpt><trkpt lat="49.8828343581" lon="8.2812951878"><ele>120.30</ele><time>2012-10-21T12:58:24Z</time></trkpt><trkpt lat="49.8828523792" lon="8.2815214153"><ele>120.30</ele><time>2012-10-21T12:58:43Z</time></trkpt><trkpt lat="49.8828395549" lon="8.2815644145"><ele>119.82</ele><time>2012-10-21T12:59:10Z</time></trkpt><trkpt lat="49.8828420695" lon="8.2815819327"><ele>119.82</ele><time>2012-10-21T12:59:11Z</time></trkpt><trkpt lat="49.8828678858" lon="8.2819341403"><ele>119.34</ele><time>2012-10-21T12:59:29Z</time></trkpt><trkpt lat="49.8828945402" lon="8.2820870262"><ele>119.34</ele><time>2012-10-21T12:59:43Z</time></trkpt><trkpt lat="49.8829009105" lon="8.2826208696"><ele>118.86</ele><time>2012-10-21T13:00:05Z</time></trkpt><trkpt lat="49.8828771897" lon="8.2830716483"><ele>118.86</ele><time>2012-10-21T13:00:25Z</time></trkpt><trkpt lat="49.8828537203" lon="8.2834761590"><ele>118.86</ele><time>2012-10-21T13:00:43Z</time></trkpt><trkpt lat="49.8828445002" lon="8.2838462200"><ele>118.38</ele><time>2012-10-21T13:00:59Z</time></trkpt><trkpt lat="49.8828183487" lon="8.2842467073"><ele>117.90</ele><time>2012-10-21T13:01:16Z</time></trkpt><trkpt lat="49.8827986512" lon="8.2846369687"><ele>117.90</ele><time>2012-10-21T13:01:32Z</time></trkpt><trkpt lat="49.8827973939" lon="8.2849539723"><ele>117.90</ele><time>2012-10-21T13:01:48Z</time></trkpt><trkpt lat="49.8828227911" lon="8.2853458263"><ele>117.90</ele><time>2012-10-21T13:02:05Z</time></trkpt><trkpt lat="49.8827793729" lon="8.2857739739"><ele>117.42</ele><time>2012-10-21T13:02:21Z</time></trkpt><trkpt lat="49.8827799596" lon="8.2861177158"><ele>117.42</ele><time>2012-10-21T13:02:39Z</time></trkpt><trkpt lat="49.8827854916" lon="8.2865323685"><ele>116.94</ele><time>2012-10-21T13:02:56Z</time></trkpt><trkpt lat="49.8828667961" lon="8.2869038545"><ele>116.94</ele><time>2012-10-21T13:03:12Z</time></trkpt><trkpt lat="49.8829425685" lon="8.2871918567"><ele>116.46</ele><time>2012-10-21T13:03:27Z</time></trkpt><trkpt lat="49.8829317559" lon="8.2873715647"><ele>116.46</ele><time>2012-10-21T13:03:35Z</time></trkpt><trkpt lat="49.8829406407" lon="8.2877687830"><ele>117.90</ele><time>2012-10-21T13:03:52Z</time></trkpt><trkpt lat="49.8829389643" lon="8.2878558710"><ele>117.90</ele><time>2012-10-21T13:04:07Z</time></trkpt><trkpt lat="49.8829385452" lon="8.2878665160"><ele>118.38</ele><time>2012-10-21T13:04:19Z</time></trkpt><trkpt lat="49.8829516210" lon="8.2878547814"><ele>118.38</ele><time>2012-10-21T13:04:34Z</time></trkpt><trkpt lat="49.8829511181" lon="8.2878460642"><ele>117.90</ele><time>2012-10-21T13:04:51Z</time></trkpt><trkpt lat="49.8829477653" lon="8.2878567092"><ele>117.90</ele><time>2012-10-21T13:04:54Z</time></trkpt><trkpt lat="49.8829484358" lon="8.2882104255"><ele>118.86</ele><time>2012-10-21T13:05:10Z</time></trkpt><trkpt lat="49.8829613440" lon="8.2885778882"><ele>119.82</ele><time>2012-10-21T13:05:27Z</time></trkpt><trkpt lat="49.8829802871" lon="8.2890603505"><ele>120.30</ele><time>2012-10-21T13:05:48Z</time></trkpt><trkpt lat="49.8829852324" lon="8.2894187607"><ele>120.78</ele><time>2012-10-21T13:06:04Z</time></trkpt><trkpt lat="49.8829978053" lon="8.2898568828"><ele>121.74</ele><time>2012-10-21T13:06:24Z</time></trkpt><trkpt lat="49.8830055166" lon="8.2901872974"><ele>122.22</ele><time>2012-10-21T13:06:38Z</time></trkpt><trkpt lat="49.8830313329" lon="8.2904923148"><ele>123.19</ele><time>2012-10-21T13:06:52Z</time></trkpt><trkpt lat="49.8830387928" lon="8.2908332068"><ele>123.67</ele><time>2012-10-21T13:07:07Z</time></trkpt><trkpt lat="49.8830409721" lon="8.2908527367"><ele>124.63</ele><time>2012-10-21T13:07:18Z</time></trkpt><trkpt lat="49.8830436543" lon="8.2909042854"><ele>124.15</ele><time>2012-10-21T13:07:21Z</time></trkpt><trkpt lat="49.8830509465" lon="8.2911899406"><ele>125.59</ele><time>2012-10-21T13:07:34Z</time></trkpt><trkpt lat="49.8830772657" lon="8.2915296592"><ele>126.55</ele><time>2012-10-21T13:07:50Z</time></trkpt><trkpt lat="49.8830848094" lon="8.2918905839"><ele>127.99</ele><time>2012-10-21T13:08:07Z</time></trkpt><trkpt lat="49.8830933589" lon="8.2922552805"><ele>129.43</ele><time>2012-10-21T13:08:25Z</time></trkpt><trkpt lat="49.8831204325" lon="8.2926448714"><ele>129.43</ele><time>2012-10-21T13:08:42Z</time></trkpt><trkpt lat="49.8831656110" lon="8.2930966560"><ele>130.88</ele><time>2012-10-21T13:09:02Z</time></trkpt><trkpt lat="49.8831981327" lon="8.2934801280"><ele>131.36</ele><time>2012-10-21T13:09:20Z</time></trkpt><trkpt lat="49.8832363542" lon="8.2938302401"><ele>132.32</ele><time>2012-10-21T13:09:36Z</time></trkpt><trkpt lat="49.8832718097" lon="8.2941734791"><ele>133.28</ele><time>2012-10-21T13:09:52Z</time></trkpt><trkpt lat="49.8832857236" lon="8.2945108507"><ele>134.24</ele><time>2012-10-21T13:10:07Z</time></trkpt><trkpt lat="49.8833177425" lon="8.2948650699"><ele>134.72</ele><time>2012-10-21T13:10:23Z</time></trkpt><trkpt lat="49.8833547905" lon="8.2952172775"><ele>135.68</ele><time>2012-10-21T13:10:39Z</time></trkpt><trkpt lat="49.8833890725" lon="8.2955590915"><ele>136.64</ele><time>2012-10-21T13:10:55Z</time></trkpt><trkpt lat="49.8834505957" lon="8.2957255561"><ele>137.13</ele><time>2012-10-21T13:11:08Z</time></trkpt><trkpt lat="49.8834477458" lon="8.2956948783"><ele>137.61</ele><time>2012-10-21T13:11:30Z</time></trkpt><trkpt lat="49.8834590614" lon="8.2956908550"><ele>137.61</ele><time>2012-10-21T13:11:46Z</time></trkpt><trkpt lat="49.8834746517" lon="8.2957085408"><ele>137.61</ele><time>2012-10-21T13:11:48Z</time></trkpt><trkpt lat="49.8834912479" lon="8.2957312558"><ele>137.61</ele><time>2012-10-21T13:11:50Z</time></trkpt><trkpt lat="49.8837522604" lon="8.2957714889"><ele>137.13</ele><time>2012-10-21T13:12:08Z</time></trkpt><trkpt lat="49.8840048909" lon="8.2958196849"><ele>137.13</ele><time>2012-10-21T13:12:26Z</time></trkpt><trkpt lat="49.8842773866" lon="8.2958884165"><ele>137.13</ele><time>2012-10-21T13:12:46Z</time></trkpt><trkpt lat="49.8844910413" lon="8.2959252130"><ele>137.13</ele><time>2012-10-21T13:13:00Z</time></trkpt><trkpt lat="49.8847636208" lon="8.2959735766"><ele>137.61</ele><time>2012-10-21T13:13:18Z</time></trkpt><trkpt lat="49.8849574942" lon="8.2961231936"><ele>137.61</ele><time>2012-10-21T13:13:34Z</time></trkpt><trkpt lat="49.8850258067" lon="8.2965605613"><ele>139.53</ele><time>2012-10-21T13:13:54Z</time></trkpt><trkpt lat="49.8851019982" lon="8.2970462088"><ele>140.49</ele><time>2012-10-21T13:14:17Z</time></trkpt><trkpt lat="49.8851856496" lon="8.2975439262"><ele>142.41</ele><time>2012-10-21T13:14:39Z</time></trkpt><trkpt lat="49.8852729052" lon="8.2979965489"><ele>143.85</ele><time>2012-10-21T13:15:00Z</time></trkpt><trkpt lat="49.8853600770" lon="8.2984067593"><ele>144.82</ele><time>2012-10-21T13:15:19Z</time></trkpt><trkpt lat="49.8854503501" lon="8.2988563646"><ele>146.26</ele><time>2012-10-21T13:15:39Z</time></trkpt><trkpt lat="49.8855204228" lon="8.2992161158"><ele>147.22</ele><time>2012-10-21T13:15:55Z</time></trkpt><trkpt lat="49.8856002185" lon="8.2996336184"><ele>148.18</ele><time>2012-10-21T13:16:14Z</time></trkpt><trkpt lat="49.8856404517" lon="8.2998199482"><ele>148.66</ele><time>2012-10-21T13:16:23Z</time></trkpt><trkpt lat="49.8857233487" lon="8.3002801985"><ele>149.62</ele><time>2012-10-21T13:16:44Z</time></trkpt><trkpt lat="49.8858276196" lon="8.3007428795"><ele>150.58</ele><time>2012-10-21T13:17:05Z</time></trkpt><trkpt lat="49.8859302141" lon="8.3012379985"><ele>151.54</ele><time>2012-10-21T13:17:27Z</time></trkpt><trkpt lat="49.8859786615" lon="8.3016499691"><ele>152.99</ele><time>2012-10-21T13:17:47Z</time></trkpt><trkpt lat="49.8860788252" lon="8.3021237981"><ele>154.43</ele><time>2012-10-21T13:18:09Z</time></trkpt><trkpt lat="49.8861652426" lon="8.3026041649"><ele>154.91</ele><time>2012-10-21T13:18:31Z</time></trkpt><trkpt lat="49.8862441164" lon="8.3030977752"><ele>155.87</ele><time>2012-10-21T13:18:53Z</time></trkpt><trkpt lat="49.8863245826" lon="8.3035406750"><ele>156.83</ele><time>2012-10-21T13:19:14Z</time></trkpt><trkpt lat="49.8864234891" lon="8.3041207027"><ele>158.27</ele><time>2012-10-21T13:19:39Z</time></trkpt><trkpt lat="49.8864881136" lon="8.3045180887"><ele>158.75</ele><time>2012-10-21T13:19:58Z</time></trkpt><trkpt lat="49.8865823261" lon="8.3050019760"><ele>159.72</ele><time>2012-10-21T13:20:21Z</time></trkpt><trkpt lat="49.8866684083" lon="8.3054832648"><ele>160.20</ele><time>2012-10-21T13:20:42Z</time></trkpt><trkpt lat="49.8867562506" lon="8.3059239853"><ele>161.16</ele><time>2012-10-21T13:21:03Z</time></trkpt><trkpt lat="49.8868555762" lon="8.3062636200"><ele>162.12</ele><time>2012-10-21T13:21:19Z</time></trkpt><trkpt lat="49.8869472742" lon="8.3065875806"><ele>162.60</ele><time>2012-10-21T13:21:36Z</time></trkpt><trkpt lat="49.8870855756" lon="8.3069630060"><ele>164.04</ele><time>2012-10-21T13:21:55Z</time></trkpt><trkpt lat="49.8872460891" lon="8.3074678481"><ele>165.00</ele><time>2012-10-21T13:22:21Z</time></trkpt><trkpt lat="49.8873336799" lon="8.3077576943"><ele>165.48</ele><time>2012-10-21T13:22:38Z</time></trkpt><trkpt lat="49.8873362783" lon="8.3077643998"><ele>166.93</ele><time>2012-10-21T13:22:59Z</time></trkpt><trkpt lat="49.8873409722" lon="8.3077890426"><ele>165.48</ele><time>2012-10-21T13:23:17Z</time></trkpt><trkpt lat="49.8873855639" lon="8.3079150226"><ele>165.48</ele><time>2012-10-21T13:23:25Z</time></trkpt><trkpt lat="49.8876162339" lon="8.3078985941"><ele>165.96</ele><time>2012-10-21T13:23:43Z</time></trkpt><trkpt lat="49.8878653441" lon="8.3077398408"><ele>166.45</ele><time>2012-10-21T13:24:02Z</time></trkpt><trkpt lat="49.8881157115" lon="8.3075655811"><ele>166.45</ele><time>2012-10-21T13:24:20Z</time></trkpt><trkpt lat="49.8883590382" lon="8.3074070793"><ele>166.93</ele><time>2012-10-21T13:24:39Z</time></trkpt><trkpt lat="49.8885938153" lon="8.3072459791"><ele>166.93</ele><time>2012-10-21T13:24:56Z</time></trkpt><trkpt lat="49.8888568394" lon="8.3070592303"><ele>166.93</ele><time>2012-10-21T13:25:16Z</time></trkpt><trkpt lat="49.8890740983" lon="8.3069138881"><ele>166.45</ele><time>2012-10-21T13:25:33Z</time></trkpt><trkpt lat="49.8892943747" lon="8.3067636844"><ele>165.48</ele><time>2012-10-21T13:25:50Z</time></trkpt><trkpt lat="49.8895320017" lon="8.3066004049"><ele>164.52</ele><time>2012-10-21T13:26:08Z</time></trkpt><trkpt lat="49.8897341732" lon="8.3064609300"><ele>163.56</ele><time>2012-10-21T13:26:23Z</time></trkpt><trkpt lat="49.8899785895" lon="8.3063007519"><ele>163.08</ele><time>2012-10-21T13:26:42Z</time></trkpt><trkpt lat="49.8901976924" lon="8.3061477821"><ele>162.12</ele><time>2012-10-21T13:26:59Z</time></trkpt><trkpt lat="49.8904298712" lon="8.3059945609"><ele>161.16</ele><time>2012-10-21T13:27:15Z</time></trkpt><trkpt lat="49.8906414304" lon="8.3058409207"><ele>159.72</ele><time>2012-10-21T13:27:30Z</time></trkpt><trkpt lat="49.8908583540" lon="8.3056948241"><ele>158.27</ele><time>2012-10-21T13:27:47Z</time></trkpt><trkpt lat="49.8910138384" lon="8.3055862784"><ele>157.31</ele><time>2012-10-21T13:28:00Z</time></trkpt><trkpt lat="49.8912347015" lon="8.3054442052"><ele>155.87</ele><time>2012-10-21T13:28:16Z</time></trkpt><trkpt lat="49.8914799560" lon="8.3052565344"><ele>154.43</ele><time>2012-10-21T13:28:34Z</time></trkpt><trkpt lat="49.8916414753" lon="8.3051474020"><ele>152.99</ele><time>2012-10-21T13:28:47Z</time></trkpt><trkpt lat="49.8917884938" lon="8.3050558716"><ele>152.51</ele><time>2012-10-21T13:29:00Z</time></trkpt><trkpt lat="49.8919348419" lon="8.3049551211"><ele>152.03</ele><time>2012-10-21T13:29:10Z</time></trkpt><trkpt lat="49.8920060880" lon="8.3049134631"><ele>151.54</ele><time>2012-10-21T13:29:15Z</time></trkpt><trkpt lat="49.8922412843" lon="8.3047579788"><ele>150.58</ele><time>2012-10-21T13:29:32Z</time></trkpt><trkpt lat="49.8924590461" lon="8.3045997284"><ele>150.10</ele><time>2012-10-21T13:29:48Z</time></trkpt><trkpt lat="49.8926984333" lon="8.3044302464"><ele>150.10</ele><time>2012-10-21T13:30:05Z</time></trkpt><trkpt lat="49.8929037899" lon="8.3042951301"><ele>150.10</ele><time>2012-10-21T13:30:22Z</time></trkpt><trkpt lat="49.8931220546" lon="8.3041530568"><ele>150.10</ele><time>2012-10-21T13:30:38Z</time></trkpt><trkpt lat="49.8933715839" lon="8.3039693255"><ele>150.58</ele><time>2012-10-21T13:30:56Z</time></trkpt><trkpt lat="49.8935962189" lon="8.3038008492"><ele>151.06</ele><time>2012-10-21T13:31:12Z</time></trkpt><trkpt lat="49.8938289843" lon="8.3037088998"><ele>152.03</ele><time>2012-10-21T13:31:29Z</time></trkpt><trkpt lat="49.8940447345" lon="8.3039042819"><ele>152.51</ele><time>2012-10-21T13:31:46Z</time></trkpt><trkpt lat="49.8942704592" lon="8.3040829841"><ele>152.99</ele><time>2012-10-21T13:32:03Z</time></trkpt><trkpt lat="49.8945074994" lon="8.3042410668"><ele>152.99</ele><time>2012-10-21T13:32:20Z</time></trkpt><trkpt lat="49.8947725352" lon="8.3044097945"><ele>153.95</ele><time>2012-10-21T13:32:40Z</time></trkpt><trkpt lat="49.8949533328" lon="8.3042906038"><ele>154.43</ele><time>2012-10-21T13:32:54Z</time></trkpt><trkpt lat="49.8951684963" lon="8.3040980715"><ele>154.91</ele><time>2012-10-21T13:33:12Z</time></trkpt><trkpt lat="49.8953916226" lon="8.3038684912"><ele>155.39</ele><time>2012-10-21T13:33:31Z</time></trkpt><trkpt lat="49.8956399783" lon="8.3036371507"><ele>155.87</ele><time>2012-10-21T13:33:50Z</time></trkpt><trkpt lat="49.8958729953" lon="8.3034178801"><ele>156.35</ele><time>2012-10-21T13:34:08Z</time></trkpt><trkpt lat="49.8961128015" lon="8.3031970169"><ele>157.31</ele><time>2012-10-21T13:34:26Z</time></trkpt><trkpt lat="49.8962858878" lon="8.3030308876"><ele>157.31</ele><time>2012-10-21T13:34:40Z</time></trkpt><trkpt lat="49.8964755703" lon="8.3028533589"><ele>157.31</ele><time>2012-10-21T13:34:56Z</time></trkpt><trkpt lat="49.8965152167" lon="8.3028215915"><ele>157.31</ele><time>2012-10-21T13:34:59Z</time></trkpt><trkpt lat="49.8966642469" lon="8.3026174083"><ele>157.31</ele><time>2012-10-21T13:35:15Z</time></trkpt><trkpt lat="49.8968750518" lon="8.3023771830"><ele>157.31</ele><time>2012-10-21T13:35:33Z</time></trkpt><trkpt lat="49.8969157878" lon="8.3023553062"><ele>157.31</ele><time>2012-10-21T13:35:36Z</time></trkpt><trkpt lat="49.8970186338" lon="8.3025022410"><ele>156.83</ele><time>2012-10-21T13:35:50Z</time></trkpt><trkpt lat="49.8970451206" lon="8.3027274627"><ele>157.31</ele><time>2012-10-21T13:36:07Z</time></trkpt><trkpt lat="49.8970597051" lon="8.3027532790"><ele>156.83</ele><time>2012-10-21T13:36:26Z</time></trkpt><trkpt lat="49.8970585316" lon="8.3027576376"><ele>156.83</ele><time>2012-10-21T13:36:49Z</time></trkpt><trkpt lat="49.8970591184" lon="8.3027659357"><ele>156.83</ele><time>2012-10-21T13:37:19Z</time></trkpt><trkpt lat="49.8970618006" lon="8.3027674444"><ele>156.83</ele><time>2012-10-21T13:37:31Z</time></trkpt><trkpt lat="49.8970416840" lon="8.3028633334"><ele>160.68</ele><time>2012-10-21T15:06:23Z</time></trkpt><trkpt lat="49.8970442824" lon="8.3028689492"><ele>160.20</ele><time>2012-10-21T15:06:24Z</time></trkpt><trkpt lat="49.8970701825" lon="8.3027939312"><ele>160.20</ele><time>2012-10-21T15:06:42Z</time></trkpt><trkpt lat="49.8970854376" lon="8.3027828671"><ele>160.20</ele><time>2012-10-21T15:07:15Z</time></trkpt><trkpt lat="49.8970950767" lon="8.3027991280"><ele>160.20</ele><time>2012-10-21T15:07:51Z</time></trkpt><trkpt lat="49.8970945738" lon="8.3028034028"><ele>160.20</ele><time>2012-10-21T15:08:24Z</time></trkpt><trkpt lat="49.8970962502" lon="8.3028177358"><ele>160.68</ele><time>2012-10-21T15:08:49Z</time></trkpt><trkpt lat="49.8970659077" lon="8.3028018102"><ele>160.68</ele><time>2012-10-21T15:08:56Z</time></trkpt><trkpt lat="49.8970506527" lon="8.3027293906"><ele>160.68</ele><time>2012-10-21T15:09:11Z</time></trkpt><trkpt lat="49.8970516585" lon="8.3025040012"><ele>160.20</ele><time>2012-10-21T15:09:22Z</time></trkpt><trkpt lat="49.8970423546" lon="8.3024577331"><ele>160.68</ele><time>2012-10-21T15:09:25Z</time></trkpt><trkpt lat="49.8970261775" lon="8.3023744170"><ele>160.20</ele><time>2012-10-21T15:09:40Z</time></trkpt><trkpt lat="49.8970294464" lon="8.3023671247"><ele>161.64</ele><time>2012-10-21T15:09:44Z</time></trkpt><trkpt lat="49.8970384151" lon="8.3023205213"><ele>161.16</ele><time>2012-10-21T15:09:59Z</time></trkpt><trkpt lat="49.8970822524" lon="8.3022578247"><ele>160.68</ele><time>2012-10-21T15:10:05Z</time></trkpt><trkpt lat="49.8971212283" lon="8.3022107184"><ele>160.68</ele><time>2012-10-21T15:10:09Z</time></trkpt><trkpt lat="49.8972904589" lon="8.3018865902"><ele>160.68</ele><time>2012-10-21T15:10:29Z</time></trkpt><trkpt lat="49.8974253237" lon="8.3016607817"><ele>160.68</ele><time>2012-10-21T15:10:43Z</time></trkpt><trkpt lat="49.8974884395" lon="8.3015971631"><ele>160.20</ele><time>2012-10-21T15:10:51Z</time></trkpt><trkpt lat="49.8975485377" lon="8.3014997654"><ele>159.72</ele><time>2012-10-21T15:10:57Z</time></trkpt><trkpt lat="49.8976644594" lon="8.3011877909"><ele>158.27</ele><time>2012-10-21T15:11:16Z</time></trkpt><trkpt lat="49.8976792116" lon="8.3011571970"><ele>158.27</ele><time>2012-10-21T15:11:18Z</time></trkpt><trkpt lat="49.8977837339" lon="8.3009245154"><ele>157.31</ele><time>2012-10-21T15:11:34Z</time></trkpt><trkpt lat="49.8978679720" lon="8.3006478287"><ele>155.87</ele><time>2012-10-21T15:11:51Z</time></trkpt><trkpt lat="49.8979847319" lon="8.3004191704"><ele>154.91</ele><time>2012-10-21T15:12:05Z</time></trkpt><trkpt lat="49.8981081974" lon="8.3000666276"><ele>153.47</ele><time>2012-10-21T15:12:23Z</time></trkpt><trkpt lat="49.8982148152" lon="8.2997558266"><ele>152.03</ele><time>2012-10-21T15:12:41Z</time></trkpt><trkpt lat="49.8983374424" lon="8.2994616218"><ele>151.06</ele><time>2012-10-21T15:12:58Z</time></trkpt><trkpt lat="49.8984594829" lon="8.2991497312"><ele>150.10</ele><time>2012-10-21T15:13:16Z</time></trkpt><trkpt lat="49.8985246103" lon="8.2990487292"><ele>149.62</ele><time>2012-10-21T15:13:24Z</time></trkpt><trkpt lat="49.8987223394" lon="8.2988044806"><ele>148.66</ele><time>2012-10-21T15:13:43Z</time></trkpt><trkpt lat="49.8988225870" lon="8.2987193204"><ele>148.18</ele><time>2012-10-21T15:13:57Z</time></trkpt><trkpt lat="49.8989794124" lon="8.2986555342"><ele>147.70</ele><time>2012-10-21T15:14:08Z</time></trkpt><trkpt lat="49.8991890438" lon="8.2984301448"><ele>148.18</ele><time>2012-10-21T15:14:26Z</time></trkpt><trkpt lat="49.8993869405" lon="8.2982475869"><ele>149.14</ele><time>2012-10-21T15:14:43Z</time></trkpt><trkpt lat="49.8995848373" lon="8.2981483452"><ele>150.58</ele><time>2012-10-21T15:15:01Z</time></trkpt><trkpt lat="49.8997183610" lon="8.2980321720"><ele>151.06</ele><time>2012-10-21T15:15:17Z</time></trkpt><trkpt lat="49.8997173551" lon="8.2979819644"><ele>151.06</ele><time>2012-10-21T15:15:20Z</time></trkpt><trkpt lat="49.8996851686" lon="8.2978979778"><ele>151.06</ele><time>2012-10-21T15:15:23Z</time></trkpt><trkpt lat="49.8996214662" lon="8.2977235503"><ele>151.06</ele><time>2012-10-21T15:15:31Z</time></trkpt><trkpt lat="49.8995583504" lon="8.2974175271"><ele>151.06</ele><time>2012-10-21T15:15:49Z</time></trkpt><trkpt lat="49.8994960729" lon="8.2972419262"><ele>150.58</ele><time>2012-10-21T15:15:58Z</time></trkpt><trkpt lat="49.8994104937" lon="8.2969075721"><ele>150.58</ele><time>2012-10-21T15:16:16Z</time></trkpt><trkpt lat="49.8992996849" lon="8.2967031375"><ele>150.10</ele><time>2012-10-21T15:16:30Z</time></trkpt><trkpt lat="49.8992325459" lon="8.2965852041"><ele>149.62</ele><time>2012-10-21T15:16:37Z</time></trkpt><trkpt lat="49.8990865331" lon="8.2963431347"><ele>148.66</ele><time>2012-10-21T15:16:55Z</time></trkpt><trkpt lat="49.8988958448" lon="8.2960657775"><ele>147.70</ele><time>2012-10-21T15:17:14Z</time></trkpt><trkpt lat="49.8988179769" lon="8.2959382050"><ele>147.22</ele><time>2012-10-21T15:17:24Z</time></trkpt><trkpt lat="49.8986863811" lon="8.2957190182"><ele>146.26</ele><time>2012-10-21T15:17:40Z</time></trkpt><trkpt lat="49.8985989578" lon="8.2956387196"><ele>145.78</ele><time>2012-10-21T15:17:48Z</time></trkpt><trkpt lat="49.8983571399" lon="8.2953527290"><ele>144.34</ele><time>2012-10-21T15:18:13Z</time></trkpt><trkpt lat="49.8981807008" lon="8.2951075584"><ele>143.37</ele><time>2012-10-21T15:18:30Z</time></trkpt><trkpt lat="49.8980238754" lon="8.2948576100"><ele>142.89</ele><time>2012-10-21T15:18:47Z</time></trkpt><trkpt lat="49.8978921957" lon="8.2946767285"><ele>141.93</ele><time>2012-10-21T15:19:02Z</time></trkpt><trkpt lat="49.8978696484" lon="8.2945950050"><ele>141.93</ele><time>2012-10-21T15:19:06Z</time></trkpt><trkpt lat="49.8980620969" lon="8.2942642551"><ele>143.37</ele><time>2012-10-21T15:19:26Z</time></trkpt><trkpt lat="49.8982338421" lon="8.2940281369"><ele>144.34</ele><time>2012-10-21T15:19:43Z</time></trkpt><trkpt lat="49.8983652703" lon="8.2939107064"><ele>145.30</ele><time>2012-10-21T15:19:54Z</time></trkpt><trkpt lat="49.8984673619" lon="8.2937288191"><ele>146.74</ele><time>2012-10-21T15:20:05Z</time></trkpt><trkpt lat="49.8985550366" lon="8.2936822996"><ele>146.74</ele><time>2012-10-21T15:20:12Z</time></trkpt><trkpt lat="49.8987336550" lon="8.2935512066"><ele>148.18</ele><time>2012-10-21T15:20:28Z</time></trkpt><trkpt lat="49.8987908196" lon="8.2935248874"><ele>148.18</ele><time>2012-10-21T15:20:33Z</time></trkpt><trkpt lat="49.8988533486" lon="8.2934321836"><ele>148.66</ele><time>2012-10-21T15:20:40Z</time></trkpt><trkpt lat="49.8990141135" lon="8.2935003284"><ele>149.62</ele><time>2012-10-21T15:20:51Z</time></trkpt><trkpt lat="49.8990877066" lon="8.2934803795"><ele>149.62</ele><time>2012-10-21T15:20:56Z</time></trkpt><trkpt lat="49.8991697654" lon="8.2929774653"><ele>150.58</ele><time>2012-10-21T15:21:10Z</time></trkpt><trkpt lat="49.8992781434" lon="8.2928103302"><ele>151.54</ele><time>2012-10-21T15:21:21Z</time></trkpt><trkpt lat="49.8994297720" lon="8.2926208992"><ele>151.54</ele><time>2012-10-21T15:21:38Z</time></trkpt><trkpt lat="49.8995234817" lon="8.2925061509"><ele>152.03</ele><time>2012-10-21T15:21:47Z</time></trkpt><trkpt lat="49.8996327817" lon="8.2922004629"><ele>152.03</ele><time>2012-10-21T15:22:03Z</time></trkpt><trkpt lat="49.8996404093" lon="8.2921808492"><ele>152.03</ele><time>2012-10-21T15:22:04Z</time></trkpt><trkpt lat="49.8997665569" lon="8.2918592356"><ele>152.03</ele><time>2012-10-21T15:22:22Z</time></trkpt><trkpt lat="49.8998038564" lon="8.2916983869"><ele>152.03</ele><time>2012-10-21T15:22:29Z</time></trkpt><trkpt lat="49.8998540640" lon="8.2916888315"><ele>152.03</ele><time>2012-10-21T15:22:33Z</time></trkpt><trkpt lat="49.8999098875" lon="8.2916335948"><ele>152.03</ele><time>2012-10-21T15:22:38Z</time></trkpt><trkpt lat="49.9000446685" lon="8.2913731690"><ele>151.54</ele><time>2012-10-21T15:22:55Z</time></trkpt><trkpt lat="49.9001413118" lon="8.2910702471"><ele>151.06</ele><time>2012-10-21T15:23:11Z</time></trkpt><trkpt lat="49.9001557287" lon="8.2909997553"><ele>151.06</ele><time>2012-10-21T15:23:14Z</time></trkpt><trkpt lat="49.9001501966" lon="8.2908362243"><ele>151.06</ele><time>2012-10-21T15:23:25Z</time></trkpt><trkpt lat="49.9001424853" lon="8.2907990087"><ele>151.06</ele><time>2012-10-21T15:23:31Z</time></trkpt><trkpt lat="49.9001390487" lon="8.2907656487"><ele>151.06</ele><time>2012-10-21T15:23:33Z</time></trkpt><trkpt lat="49.9001800362" lon="8.2904444542"><ele>149.14</ele><time>2012-10-21T15:23:50Z</time></trkpt><trkpt lat="49.9002696387" lon="8.2901437953"><ele>148.18</ele><time>2012-10-21T15:24:08Z</time></trkpt><trkpt lat="49.9004019052" lon="8.2898614090"><ele>147.22</ele><time>2012-10-21T15:24:25Z</time></trkpt><trkpt lat="49.9005394522" lon="8.2895833813"><ele>147.22</ele><time>2012-10-21T15:24:43Z</time></trkpt><trkpt lat="49.9005559646" lon="8.2895433158"><ele>146.74</ele><time>2012-10-21T15:24:45Z</time></trkpt><trkpt lat="49.9006898236" lon="8.2891680580"><ele>147.22</ele><time>2012-10-21T15:25:06Z</time></trkpt><trkpt lat="49.9008437991" lon="8.2888398226"><ele>147.70</ele><time>2012-10-21T15:25:26Z</time></trkpt><trkpt lat="49.9009520095" lon="8.2885723561"><ele>147.70</ele><time>2012-10-21T15:25:41Z</time></trkpt><trkpt lat="49.9010441266" lon="8.2882469706"><ele>148.18</ele><time>2012-10-21T15:25:57Z</time></trkpt><trkpt lat="49.9012162909" lon="8.2878937572"><ele>149.14</ele><time>2012-10-21T15:26:18Z</time></trkpt><trkpt lat="49.9013655726" lon="8.2875618339"><ele>150.10</ele><time>2012-10-21T15:26:37Z</time></trkpt><trkpt lat="49.9014994316" lon="8.2872591633"><ele>149.62</ele><time>2012-10-21T15:26:56Z</time></trkpt><trkpt lat="49.9016529042" lon="8.2869424950"><ele>149.14</ele><time>2012-10-21T15:27:14Z</time></trkpt><trkpt lat="49.9017879367" lon="8.2866364717"><ele>148.66</ele><time>2012-10-21T15:27:33Z</time></trkpt><trkpt lat="49.9019299261" lon="8.2863193844"><ele>148.66</ele><time>2012-10-21T15:27:50Z</time></trkpt><trkpt lat="49.9020631146" lon="8.2860259339"><ele>149.62</ele><time>2012-10-21T15:28:08Z</time></trkpt><trkpt lat="49.9022000749" lon="8.2857510075"><ele>149.62</ele><time>2012-10-21T15:28:25Z</time></trkpt><trkpt lat="49.9023625161" lon="8.2854100317"><ele>149.62</ele><time>2012-10-21T15:28:44Z</time></trkpt><trkpt lat="49.9024239555" lon="8.2852811180"><ele>150.10</ele><time>2012-10-21T15:28:52Z</time></trkpt><trkpt lat="49.9025524501" lon="8.2850349415"><ele>150.10</ele><time>2012-10-21T15:29:09Z</time></trkpt><trkpt lat="49.9027351756" lon="8.2847391441"><ele>150.58</ele><time>2012-10-21T15:29:30Z</time></trkpt><trkpt lat="49.9028988741" lon="8.2844182849"><ele>151.06</ele><time>2012-10-21T15:29:48Z</time></trkpt><trkpt lat="49.9030370079" lon="8.2840897981"><ele>151.06</ele><time>2012-10-21T15:30:05Z</time></trkpt><trkpt lat="49.9031766504" lon="8.2837777399"><ele>151.06</ele><time>2012-10-21T15:30:23Z</time></trkpt><trkpt lat="49.9033221602" lon="8.2835002150"><ele>150.58</ele><time>2012-10-21T15:30:41Z</time></trkpt><trkpt lat="49.9034079071" lon="8.2833535317"><ele>150.10</ele><time>2012-10-21T15:30:50Z</time></trkpt><trkpt lat="49.9035631400" lon="8.2831029966"><ele>148.66</ele><time>2012-10-21T15:31:09Z</time></trkpt><trkpt lat="49.9037399143" lon="8.2828201074"><ele>146.26</ele><time>2012-10-21T15:31:29Z</time></trkpt><trkpt lat="49.9039559998" lon="8.2825502940"><ele>145.30</ele><time>2012-10-21T15:31:50Z</time></trkpt><trkpt lat="49.9041245598" lon="8.2823290955"><ele>144.34</ele><time>2012-10-21T15:32:08Z</time></trkpt><trkpt lat="49.9042347819" lon="8.2819972560"><ele>142.89</ele><time>2012-10-21T15:32:29Z</time></trkpt><trkpt lat="49.9044148251" lon="8.2818784006"><ele>142.41</ele><time>2012-10-21T15:32:52Z</time></trkpt><trkpt lat="49.9045026675" lon="8.2818829268"><ele>141.93</ele><time>2012-10-21T15:33:07Z</time></trkpt><trkpt lat="49.9045307469" lon="8.2818993554"><ele>141.93</ele><time>2012-10-21T15:33:29Z</time></trkpt><trkpt lat="49.9046712276" lon="8.2818059810"><ele>140.97</ele><time>2012-10-21T15:33:46Z</time></trkpt><trkpt lat="49.9047889095" lon="8.2816585433"><ele>140.01</ele><time>2012-10-21T15:34:02Z</time></trkpt><trkpt lat="49.9048757460" lon="8.2814909890"><ele>139.05</ele><time>2012-10-21T15:34:19Z</time></trkpt><trkpt lat="49.9048210122" lon="8.2814719621"><ele>139.05</ele><time>2012-10-21T15:34:33Z</time></trkpt><trkpt lat="49.9048112892" lon="8.2814800087"><ele>139.05</ele><time>2012-10-21T15:34:53Z</time></trkpt><trkpt lat="49.9047202617" lon="8.2814693637"><ele>139.05</ele><time>2012-10-21T15:35:13Z</time></trkpt><trkpt lat="49.9047176633" lon="8.2814831100"><ele>139.05</ele><time>2012-10-21T15:35:40Z</time></trkpt><trkpt lat="49.9047443178" lon="8.2814572938"><ele>139.05</ele><time>2012-10-21T15:36:06Z</time></trkpt><trkpt lat="49.9047299009" lon="8.2815483212"><ele>140.97</ele><time>2012-10-21T15:36:51Z</time></trkpt><trkpt lat="49.9047055934" lon="8.2815492433"><ele>139.53</ele><time>2012-10-21T15:36:53Z</time></trkpt><trkpt lat="49.9046046752" lon="8.2815562841"><ele>140.01</ele><time>2012-10-21T15:37:16Z</time></trkpt><trkpt lat="49.9045570660" lon="8.2815471478"><ele>138.09</ele><time>2012-10-21T15:37:32Z</time></trkpt><trkpt lat="49.9045561440" lon="8.2815462258"><ele>140.97</ele><time>2012-10-21T15:37:33Z</time></trkpt><trkpt lat="49.9045419786" lon="8.2815362513"><ele>140.49</ele><time>2012-10-21T15:37:40Z</time></trkpt><trkpt lat="49.9045908451" lon="8.2815232594"><ele>140.49</ele><time>2012-10-21T15:37:50Z</time></trkpt></trkseg></trk></gpx>